DLH723 ZBAA-EDDM
Flight info
| Callsign | DLH723 |
|---|---|
| Flight time | N/A |
| Altitude | 36100 |
| Route | IDKEX5Y IDKEX B339 ASILA A575 UPREK W28 LAGEB W66 NUKTI B215 IRPEP/K0891S1160 B215 KABDO W119 GOBOK A343 RULAD/K0889F380 M610 ARBOL Z621 GENDI N147 OTBOR/N0485F380 A480 TIMGA B476 NEBIT/N0490F400 B476 METKA L88 NIJAT N644 ADEKI DCT BADIR DCT LAGAS DCT FOQUS DCT SARPI UM10 GOKPA UL746 ODERO DCT LUGEB DCT MOPUG DCT SUNIS DCT AMADI Q113 NAPSA NAPSA1B |
| Aircraft | A359/H-SADE2E3GHIJ1J2J3J4J5M1P2RWXYZ/LB1D1 |
Departure
| Time | 2026-05-07 07:07 |
|---|---|
| Airport | Beijing Capital International Airport (ZBAA) |
Arrival
| Time | N/A |
|---|---|
| Airport | Munich Airport (EDDM) |
| Time | Latitude | Longitude | Altitude | Speed | Heading |
|---|---|---|---|---|---|
| 2026-05-07 06:48 | 40.07671 | 116.60828 | 130 ft | 0 kts | 303° |
| 2026-05-07 06:56 | 40.07668 | 116.60834 | 130 ft | 4 kts | 303° |
| 2026-05-07 06:56 | 40.07653 | 116.60864 | 135 ft | 4 kts | 303° |
| 2026-05-07 06:57 | 40.07638 | 116.60893 | 125 ft | 3 kts | 303° |
| 2026-05-07 06:57 | 40.07628 | 116.60919 | 130 ft | 4 kts | 269° |
| 2026-05-07 06:57 | 40.07637 | 116.60945 | 128 ft | 4 kts | 214° |
| 2026-05-07 06:57 | 40.07652 | 116.60958 | 134 ft | 1 kts | 216° |
| 2026-05-07 07:00 | 40.07647 | 116.60953 | 124 ft | 3 kts | 216° |
| 2026-05-07 07:00 | 40.07611 | 116.60921 | 127 ft | 9 kts | 210° |
| 2026-05-07 07:01 | 40.07531 | 116.60890 | 125 ft | 15 kts | 186° |
| 2026-05-07 07:01 | 40.07410 | 116.60902 | 127 ft | 20 kts | 173° |
| 2026-05-07 07:01 | 40.07270 | 116.60923 | 126 ft | 20 kts | 173° |
| 2026-05-07 07:01 | 40.07127 | 116.60946 | 125 ft | 21 kts | 172° |
| 2026-05-07 07:02 | 40.07001 | 116.60966 | 126 ft | 15 kts | 173° |
| 2026-05-07 07:02 | 40.06936 | 116.60938 | 129 ft | 9 kts | 241° |
| 2026-05-07 07:02 | 40.06925 | 116.60847 | 128 ft | 12 kts | 263° |
| 2026-05-07 07:02 | 40.06913 | 116.60720 | 125 ft | 14 kts | 263° |
| 2026-05-07 07:03 | 40.06901 | 116.60588 | 130 ft | 15 kts | 263° |
| 2026-05-07 07:03 | 40.06888 | 116.60455 | 127 ft | 15 kts | 263° |
| 2026-05-07 07:03 | 40.06876 | 116.60319 | 126 ft | 15 kts | 263° |
| 2026-05-07 07:03 | 40.06863 | 116.60180 | 130 ft | 15 kts | 263° |
| 2026-05-07 07:04 | 40.06835 | 116.60063 | 126 ft | 11 kts | 212° |
| 2026-05-07 07:04 | 40.06751 | 116.60062 | 130 ft | 16 kts | 173° |
| 2026-05-07 07:04 | 40.06615 | 116.60083 | 126 ft | 24 kts | 173° |
| 2026-05-07 07:04 | 40.06438 | 116.60111 | 124 ft | 26 kts | 173° |
| 2026-05-07 07:05 | 40.06255 | 116.60139 | 126 ft | 26 kts | 173° |
| 2026-05-07 07:05 | 40.06073 | 116.60167 | 125 ft | 26 kts | 173° |
| 2026-05-07 07:05 | 40.05889 | 116.60197 | 126 ft | 27 kts | 173° |
| 2026-05-07 07:05 | 40.05758 | 116.60215 | 128 ft | 11 kts | 182° |
| 2026-05-07 07:06 | 40.05722 | 116.60147 | 130 ft | 10 kts | 260° |
| 2026-05-07 07:06 | 40.05712 | 116.60059 | 126 ft | 10 kts | 262° |
| 2026-05-07 07:06 | 40.05730 | 116.59992 | 124 ft | 7 kts | 332° |
| 2026-05-07 07:06 | 40.05890 | 116.59962 | 127 ft | 49 kts | 353° |
| 2026-05-07 07:07 | 40.06417 | 116.59878 | 130 ft | 102 kts | 353° |
| 2026-05-07 07:07 | 40.07268 | 116.59743 | 128 ft | 146 kts | 353° |
| 2026-05-07 07:07 | 40.08330 | 116.59592 | 557 ft | 149 kts | 351° |
| 2026-05-07 07:07 | 40.09378 | 116.59443 | 981 ft | 155 kts | 351° |
| 2026-05-07 07:08 | 40.10456 | 116.59275 | 1485 ft | 156 kts | 350° |
| 2026-05-07 07:08 | 40.11534 | 116.59094 | 2016 ft | 155 kts | 349° |
| 2026-05-07 07:08 | 40.12598 | 116.58921 | 2458 ft | 155 kts | 351° |
| 2026-05-07 07:08 | 40.13666 | 116.58746 | 2911 ft | 153 kts | 352° |
| 2026-05-07 07:09 | 40.14736 | 116.58597 | 3251 ft | 157 kts | 353° |
| 2026-05-07 07:09 | 40.15883 | 116.58424 | 3451 ft | 174 kts | 352° |
| 2026-05-07 07:09 | 40.17132 | 116.58210 | 3696 ft | 187 kts | 352° |
| 2026-05-07 07:09 | 40.18472 | 116.57988 | 3903 ft | 205 kts | 352° |
| 2026-05-07 07:10 | 40.19954 | 116.57750 | 4115 ft | 222 kts | 352° |
| 2026-05-07 07:10 | 40.21551 | 116.57497 | 4349 ft | 238 kts | 353° |
| 2026-05-07 07:10 | 40.23232 | 116.57232 | 4844 ft | 245 kts | 352° |
| 2026-05-07 07:10 | 40.24919 | 116.56962 | 5402 ft | 249 kts | 352° |
| 2026-05-07 07:11 | 40.26646 | 116.56686 | 6056 ft | 251 kts | 351° |
| 2026-05-07 07:11 | 40.28382 | 116.56391 | 6703 ft | 252 kts | 351° |
| 2026-05-07 07:11 | 40.30132 | 116.56093 | 7335 ft | 255 kts | 351° |
| 2026-05-07 07:11 | 40.31914 | 116.55790 | 7945 ft | 260 kts | 351° |
| 2026-05-07 07:12 | 40.33714 | 116.55486 | 8625 ft | 261 kts | 351° |
| 2026-05-07 07:12 | 40.35473 | 116.55187 | 9266 ft | 263 kts | 351° |
| 2026-05-07 07:12 | 40.37279 | 116.54882 | 9872 ft | 265 kts | 351° |
| 2026-05-07 07:12 | 40.39138 | 116.54570 | 10388 ft | 274 kts | 351° |
| 2026-05-07 07:13 | 40.41066 | 116.54243 | 10653 ft | 290 kts | 351° |
| 2026-05-07 07:13 | 40.43145 | 116.54113 | 10955 ft | 307 kts | 359° |
| 2026-05-07 07:13 | 40.45334 | 116.54237 | 11232 ft | 322 kts | 0° |
| 2026-05-07 07:13 | 40.47621 | 116.54415 | 11590 ft | 334 kts | 1° |
| 2026-05-07 07:14 | 40.49931 | 116.54596 | 12146 ft | 338 kts | 1° |
| 2026-05-07 07:14 | 40.52294 | 116.54778 | 12746 ft | 340 kts | 1° |
| 2026-05-07 07:14 | 40.54671 | 116.54961 | 13304 ft | 344 kts | 0° |
| 2026-05-07 07:14 | 40.57067 | 116.55142 | 13897 ft | 345 kts | 0° |
| 2026-05-07 07:15 | 40.59483 | 116.55317 | 14432 ft | 347 kts | 0° |
| 2026-05-07 07:15 | 40.61900 | 116.55492 | 14988 ft | 349 kts | 0° |
| 2026-05-07 07:15 | 40.64309 | 116.55672 | 15571 ft | 350 kts | 360° |
| 2026-05-07 07:15 | 40.66751 | 116.55852 | 16158 ft | 352 kts | 360° |
| 2026-05-07 07:16 | 40.69028 | 116.56017 | 16644 ft | 355 kts | 359° |
| 2026-05-07 07:16 | 40.71520 | 116.56199 | 17231 ft | 357 kts | 359° |
| 2026-05-07 07:16 | 40.73980 | 116.56382 | 17814 ft | 359 kts | 359° |
| 2026-05-07 07:16 | 40.76495 | 116.56565 | 18362 ft | 362 kts | 359° |
| 2026-05-07 07:17 | 40.79018 | 116.56583 | 18877 ft | 363 kts | 355° |
| 2026-05-07 07:17 | 40.81557 | 116.56437 | 19354 ft | 366 kts | 353° |
| 2026-05-07 07:17 | 40.84112 | 116.56203 | 19831 ft | 369 kts | 352° |
| 2026-05-07 07:17 | 40.86693 | 116.55930 | 20311 ft | 373 kts | 352° |
| 2026-05-07 07:18 | 40.89258 | 116.55652 | 20762 ft | 376 kts | 352° |
| 2026-05-07 07:18 | 40.91882 | 116.55376 | 21242 ft | 378 kts | 352° |
| 2026-05-07 07:18 | 40.94528 | 116.55113 | 21690 ft | 382 kts | 352° |
| 2026-05-07 07:18 | 40.97194 | 116.54857 | 22137 ft | 385 kts | 352° |
| 2026-05-07 07:19 | 40.99852 | 116.54606 | 22593 ft | 387 kts | 352° |
| 2026-05-07 07:19 | 41.02559 | 116.54353 | 23041 ft | 390 kts | 352° |
| 2026-05-07 07:19 | 41.05284 | 116.54100 | 23446 ft | 393 kts | 352° |
| 2026-05-07 07:19 | 41.08032 | 116.53847 | 23851 ft | 396 kts | 352° |
| 2026-05-07 07:20 | 41.10763 | 116.53594 | 24256 ft | 398 kts | 352° |
| 2026-05-07 07:20 | 41.13543 | 116.53333 | 24640 ft | 401 kts | 352° |
| 2026-05-07 07:20 | 41.16345 | 116.53070 | 25032 ft | 404 kts | 352° |
| 2026-05-07 07:20 | 41.19171 | 116.52804 | 25372 ft | 407 kts | 352° |
| 2026-05-07 07:21 | 41.21949 | 116.52331 | 25757 ft | 406 kts | 345° |
| 2026-05-07 07:21 | 41.24680 | 116.51357 | 26117 ft | 406 kts | 337° |
| 2026-05-07 07:21 | 41.27270 | 116.49841 | 26476 ft | 406 kts | 330° |
| 2026-05-07 07:21 | 41.29763 | 116.48060 | 26858 ft | 407 kts | 328° |
| 2026-05-07 07:22 | 41.32197 | 116.46189 | 27218 ft | 409 kts | 327° |
| 2026-05-07 07:22 | 41.34654 | 116.44233 | 27576 ft | 411 kts | 327° |
| 2026-05-07 07:22 | 41.37112 | 116.42251 | 27941 ft | 413 kts | 327° |
| 2026-05-07 07:22 | 41.39581 | 116.40260 | 28244 ft | 416 kts | 327° |
| 2026-05-07 07:23 | 41.42074 | 116.38262 | 28572 ft | 418 kts | 327° |
| 2026-05-07 07:23 | 41.44582 | 116.36261 | 28905 ft | 420 kts | 327° |
| 2026-05-07 07:23 | 41.47068 | 116.34281 | 29227 ft | 421 kts | 327° |
| 2026-05-07 07:23 | 41.49598 | 116.32270 | 29491 ft | 424 kts | 327° |
| 2026-05-07 07:24 | 41.52147 | 116.30244 | 29761 ft | 426 kts | 327° |
| 2026-05-07 07:24 | 41.54706 | 116.28209 | 30072 ft | 428 kts | 327° |
| 2026-05-07 07:24 | 41.57241 | 116.26191 | 30332 ft | 430 kts | 327° |
| 2026-05-07 07:24 | 41.59826 | 116.24132 | 30570 ft | 432 kts | 327° |
| 2026-05-07 07:25 | 41.64991 | 116.20010 | 31029 ft | 436 kts | 327° |
| 2026-05-07 07:25 | 41.67605 | 116.17920 | 31250 ft | 438 kts | 327° |
| 2026-05-07 07:25 | 41.70232 | 116.15818 | 31492 ft | 439 kts | 327° |
| 2026-05-07 07:26 | 41.72862 | 116.13711 | 31714 ft | 441 kts | 327° |
| 2026-05-07 07:26 | 41.75508 | 116.11591 | 31898 ft | 443 kts | 327° |
| 2026-05-07 07:26 | 41.78164 | 116.09459 | 32078 ft | 445 kts | 327° |
| 2026-05-07 07:26 | 41.80794 | 116.07347 | 32317 ft | 445 kts | 327° |
| 2026-05-07 07:27 | 41.83456 | 116.05208 | 32612 ft | 444 kts | 327° |
| 2026-05-07 07:27 | 41.86110 | 116.03073 | 32908 ft | 444 kts | 327° |
| 2026-05-07 07:27 | 41.88761 | 116.00938 | 33111 ft | 444 kts | 327° |
| 2026-05-07 07:27 | 41.91356 | 115.98781 | 33361 ft | 442 kts | 323° |
| 2026-05-07 07:28 | 41.93799 | 115.96275 | 33573 ft | 441 kts | 317° |
| 2026-05-07 07:28 | 41.95980 | 115.93370 | 33753 ft | 440 kts | 310° |
| 2026-05-07 07:28 | 41.97830 | 115.90092 | 33990 ft | 439 kts | 302° |
| 2026-05-07 07:28 | 41.99415 | 115.86573 | 34229 ft | 438 kts | 300° |
| 2026-05-07 07:29 | 42.00898 | 115.83037 | 34397 ft | 439 kts | 299° |
| 2026-05-07 07:29 | 42.02360 | 115.79425 | 34583 ft | 439 kts | 298° |
| 2026-05-07 07:29 | 42.03808 | 115.75794 | 34754 ft | 439 kts | 298° |
| 2026-05-07 07:29 | 42.05251 | 115.72164 | 34931 ft | 439 kts | 298° |
| 2026-05-07 07:30 | 42.06700 | 115.68531 | 35102 ft | 439 kts | 298° |
| 2026-05-07 07:30 | 42.08133 | 115.64953 | 35276 ft | 439 kts | 298° |
| 2026-05-07 07:30 | 42.09587 | 115.61332 | 35424 ft | 439 kts | 298° |
| 2026-05-07 07:30 | 42.11048 | 115.57696 | 35571 ft | 440 kts | 298° |
| 2026-05-07 07:31 | 42.12510 | 115.54061 | 35673 ft | 441 kts | 298° |
| 2026-05-07 07:31 | 42.13955 | 115.50465 | 35807 ft | 441 kts | 298° |
| 2026-05-07 07:31 | 42.15421 | 115.46811 | 35957 ft | 441 kts | 298° |
| 2026-05-07 07:31 | 42.16882 | 115.43165 | 36098 ft | 441 kts | 298° |
| 2026-05-07 07:32 | 42.18324 | 115.39560 | 36167 ft | 442 kts | 298° |
| 2026-05-07 07:32 | 42.21188 | 115.32141 | 36205 ft | 447 kts | 294° |
| 2026-05-07 07:33 | 42.22907 | 115.24107 | 36209 ft | 450 kts | 279° |
| 2026-05-07 07:33 | 42.22948 | 115.15598 | 36210 ft | 455 kts | 269° |
| 2026-05-07 07:34 | 42.22386 | 115.07108 | 36215 ft | 456 kts | 268° |
| 2026-05-07 07:34 | 42.21735 | 114.98583 | 36218 ft | 456 kts | 268° |
| 2026-05-07 07:35 | 42.21101 | 114.90041 | 36219 ft | 456 kts | 268° |
| 2026-05-07 07:35 | 42.20490 | 114.81558 | 36218 ft | 456 kts | 268° |
| 2026-05-07 07:36 | 42.19980 | 114.74464 | 36219 ft | 456 kts | 268° |
| 2026-05-07 07:36 | 42.19260 | 114.64551 | 36228 ft | 456 kts | 268° |
| 2026-05-07 07:37 | 42.18739 | 114.57464 | 36227 ft | 455 kts | 268° |
| 2026-05-07 07:37 | 42.18110 | 114.49002 | 36228 ft | 455 kts | 268° |
| 2026-05-07 07:38 | 42.17471 | 114.40488 | 36227 ft | 454 kts | 268° |
| 2026-05-07 07:38 | 42.16828 | 114.32001 | 36237 ft | 454 kts | 268° |
| 2026-05-07 07:39 | 42.16186 | 114.23591 | 36236 ft | 453 kts | 268° |
| 2026-05-07 07:39 | 42.15530 | 114.15122 | 36236 ft | 453 kts | 268° |
| 2026-05-07 07:40 | 42.14895 | 114.06987 | 36238 ft | 453 kts | 268° |
| 2026-05-07 07:40 | 42.14229 | 113.98531 | 36247 ft | 453 kts | 268° |
| 2026-05-07 07:41 | 42.13586 | 113.90427 | 36243 ft | 452 kts | 268° |
| 2026-05-07 07:41 | 42.12933 | 113.82281 | 36245 ft | 453 kts | 268° |
| 2026-05-07 07:42 | 42.12249 | 113.73818 | 36247 ft | 453 kts | 268° |
| 2026-05-07 07:42 | 42.11588 | 113.65722 | 36256 ft | 453 kts | 268° |
| 2026-05-07 07:43 | 42.10916 | 113.57577 | 36258 ft | 454 kts | 268° |
| 2026-05-07 07:43 | 42.10081 | 113.49182 | 36257 ft | 457 kts | 262° |
| 2026-05-07 07:44 | 42.08686 | 113.41109 | 36264 ft | 459 kts | 261° |
| 2026-05-07 07:44 | 42.07120 | 113.32771 | 36265 ft | 459 kts | 261° |
| 2026-05-07 07:45 | 42.05532 | 113.24464 | 36274 ft | 460 kts | 261° |
| 2026-05-07 07:45 | 42.03947 | 113.16154 | 36274 ft | 460 kts | 261° |
| 2026-05-07 07:46 | 42.02415 | 113.08091 | 36274 ft | 460 kts | 261° |
| 2026-05-07 07:46 | 42.00819 | 112.99745 | 36273 ft | 460 kts | 261° |
| 2026-05-07 07:47 | 41.99224 | 112.91438 | 36286 ft | 460 kts | 260° |
| 2026-05-07 07:47 | 41.97633 | 112.83193 | 36292 ft | 454 kts | 261° |
| 2026-05-07 07:48 | 41.96040 | 112.74968 | 36292 ft | 454 kts | 261° |
| 2026-05-07 07:48 | 41.94881 | 112.66686 | 36293 ft | 446 kts | 271° |
| 2026-05-07 07:49 | 41.95287 | 112.58794 | 36296 ft | 439 kts | 285° |
| 2026-05-07 07:49 | 41.96768 | 112.50817 | 36296 ft | 439 kts | 288° |
| 2026-05-07 07:50 | 41.98281 | 112.43521 | 36299 ft | 440 kts | 288° |
| 2026-05-07 07:50 | 41.99925 | 112.35589 | 36299 ft | 440 kts | 288° |
| 2026-05-07 07:51 | 42.01543 | 112.27633 | 36300 ft | 441 kts | 288° |
| 2026-05-07 07:51 | 42.03136 | 112.19701 | 36310 ft | 441 kts | 288° |
| 2026-05-07 07:52 | 42.04732 | 112.11712 | 36300 ft | 441 kts | 288° |
| 2026-05-07 07:52 | 42.06323 | 112.03716 | 36299 ft | 441 kts | 288° |
| 2026-05-07 07:53 | 42.07901 | 111.95764 | 36300 ft | 441 kts | 288° |
| 2026-05-07 07:53 | 42.09482 | 111.87757 | 36301 ft | 441 kts | 288° |
| 2026-05-07 07:54 | 42.11056 | 111.79759 | 36298 ft | 441 kts | 287° |
| 2026-05-07 07:54 | 42.12616 | 111.71798 | 36300 ft | 441 kts | 288° |
| 2026-05-07 07:55 | 42.14173 | 111.63822 | 36299 ft | 442 kts | 288° |
| 2026-05-07 07:55 | 42.15736 | 111.55781 | 36301 ft | 442 kts | 288° |
| 2026-05-07 07:56 | 42.17281 | 111.47800 | 36301 ft | 442 kts | 288° |
| 2026-05-07 07:56 | 42.18829 | 111.39773 | 36299 ft | 442 kts | 287° |
| 2026-05-07 07:57 | 42.20086 | 111.31633 | 36299 ft | 446 kts | 279° |
| 2026-05-07 07:57 | 42.19910 | 111.23268 | 36298 ft | 452 kts | 269° |
| 2026-05-07 07:58 | 42.19071 | 111.14814 | 36301 ft | 454 kts | 267° |
| 2026-05-07 07:58 | 42.18128 | 111.06415 | 36299 ft | 455 kts | 266° |
| 2026-05-07 07:59 | 42.17185 | 110.97972 | 36302 ft | 454 kts | 267° |
| 2026-05-07 07:59 | 42.16265 | 110.89593 | 36302 ft | 454 kts | 267° |
| 2026-05-07 08:00 | 42.15340 | 110.81156 | 36301 ft | 453 kts | 267° |
| 2026-05-07 08:00 | 42.14414 | 110.72752 | 36309 ft | 453 kts | 267° |
| 2026-05-07 08:01 | 42.13484 | 110.64385 | 36300 ft | 452 kts | 267° |
| 2026-05-07 08:01 | 42.12544 | 110.55981 | 36298 ft | 453 kts | 267° |
| 2026-05-07 08:02 | 42.11598 | 110.47586 | 36293 ft | 452 kts | 267° |
| 2026-05-07 08:02 | 42.10651 | 110.39242 | 36294 ft | 452 kts | 267° |
| 2026-05-07 08:03 | 42.09700 | 110.30914 | 36294 ft | 451 kts | 267° |
| 2026-05-07 08:03 | 42.08738 | 110.22549 | 36292 ft | 451 kts | 267° |
| 2026-05-07 08:04 | 42.07777 | 110.14243 | 36292 ft | 451 kts | 267° |
| 2026-05-07 08:04 | 42.06803 | 110.05884 | 36292 ft | 451 kts | 267° |
| 2026-05-07 08:05 | 42.05823 | 109.97530 | 36292 ft | 451 kts | 267° |
| 2026-05-07 08:05 | 42.04844 | 109.89232 | 36293 ft | 451 kts | 267° |
| 2026-05-07 08:06 | 42.03852 | 109.80875 | 36293 ft | 451 kts | 267° |
| 2026-05-07 08:06 | 42.02860 | 109.72582 | 36294 ft | 451 kts | 267° |
| 2026-05-07 08:07 | 42.01855 | 109.64224 | 36293 ft | 451 kts | 267° |
| 2026-05-07 08:07 | 42.00846 | 109.55887 | 36293 ft | 451 kts | 267° |
| 2026-05-07 08:08 | 41.99836 | 109.47599 | 36293 ft | 451 kts | 267° |
| 2026-05-07 08:08 | 41.98817 | 109.39289 | 36266 ft | 448 kts | 266° |
| 2026-05-07 08:09 | 41.97802 | 109.31080 | 36264 ft | 446 kts | 266° |
| 2026-05-07 08:09 | 41.96780 | 109.22839 | 36266 ft | 445 kts | 266° |
| 2026-05-07 08:10 | 41.95761 | 109.14671 | 36264 ft | 444 kts | 266° |
| 2026-05-07 08:10 | 41.94730 | 109.06460 | 36265 ft | 443 kts | 266° |
| 2026-05-07 08:11 | 41.93704 | 108.98341 | 36260 ft | 443 kts | 266° |
| 2026-05-07 08:11 | 41.92664 | 108.90153 | 36256 ft | 443 kts | 266° |
| 2026-05-07 08:12 | 41.91624 | 108.82017 | 36257 ft | 443 kts | 266° |
| 2026-05-07 08:12 | 41.90581 | 108.73904 | 36262 ft | 443 kts | 266° |
| 2026-05-07 08:13 | 41.89525 | 108.65741 | 36265 ft | 443 kts | 266° |
| 2026-05-07 08:13 | 41.88462 | 108.57573 | 36265 ft | 443 kts | 266° |
| 2026-05-07 08:14 | 41.87401 | 108.49464 | 36265 ft | 443 kts | 266° |
| 2026-05-07 08:14 | 41.86327 | 108.41296 | 36265 ft | 444 kts | 266° |
| 2026-05-07 08:15 | 41.85251 | 108.33162 | 36264 ft | 444 kts | 266° |
| 2026-05-07 08:15 | 41.84162 | 108.24979 | 36265 ft | 445 kts | 266° |
| 2026-05-07 08:16 | 41.83066 | 108.16790 | 36263 ft | 445 kts | 266° |
| 2026-05-07 08:16 | 41.81967 | 108.08625 | 36254 ft | 446 kts | 266° |
| 2026-05-07 08:17 | 41.80863 | 108.00462 | 36256 ft | 447 kts | 266° |
| 2026-05-07 08:17 | 41.79745 | 107.92254 | 36256 ft | 446 kts | 266° |
| 2026-05-07 08:18 | 41.78623 | 107.84058 | 36255 ft | 446 kts | 266° |
| 2026-05-07 08:18 | 41.77501 | 107.75914 | 36257 ft | 446 kts | 266° |
| 2026-05-07 08:19 | 41.76371 | 107.67747 | 36256 ft | 445 kts | 265° |
| 2026-05-07 08:19 | 41.75241 | 107.59627 | 36256 ft | 444 kts | 265° |
| 2026-05-07 08:20 | 41.74100 | 107.51473 | 36256 ft | 443 kts | 265° |
| 2026-05-07 08:20 | 41.72968 | 107.43420 | 36253 ft | 442 kts | 265° |
| 2026-05-07 08:21 | 41.71824 | 107.35330 | 36256 ft | 441 kts | 265° |
| 2026-05-07 08:21 | 41.70674 | 107.27241 | 36257 ft | 441 kts | 265° |
| 2026-05-07 08:22 | 41.69531 | 107.19238 | 36256 ft | 440 kts | 265° |
| 2026-05-07 08:22 | 41.68569 | 107.12540 | 36255 ft | 439 kts | 264° |
| 2026-05-07 08:23 | 41.67223 | 107.03216 | 36257 ft | 438 kts | 264° |
| 2026-05-07 08:23 | 41.66255 | 106.96549 | 36256 ft | 437 kts | 264° |
| 2026-05-07 08:24 | 41.65097 | 106.88597 | 36256 ft | 437 kts | 264° |
| 2026-05-07 08:24 | 41.63927 | 106.80608 | 36256 ft | 436 kts | 264° |
| 2026-05-07 08:25 | 41.62758 | 106.72667 | 36255 ft | 437 kts | 264° |
| 2026-05-07 08:25 | 41.61577 | 106.64685 | 36256 ft | 437 kts | 264° |
| 2026-05-07 08:26 | 41.59799 | 106.52741 | 36256 ft | 438 kts | 264° |
| 2026-05-07 08:26 | 41.58602 | 106.44754 | 36253 ft | 438 kts | 264° |
| 2026-05-07 08:27 | 41.57405 | 106.36807 | 36256 ft | 438 kts | 264° |
| 2026-05-07 08:27 | 41.56201 | 106.28849 | 36256 ft | 439 kts | 264° |
| 2026-05-07 08:28 | 41.54984 | 106.20850 | 36256 ft | 439 kts | 264° |
| 2026-05-07 08:28 | 41.53756 | 106.12865 | 36254 ft | 439 kts | 263° |
| 2026-05-07 08:29 | 41.51858 | 106.05070 | 36255 ft | 446 kts | 255° |
| 2026-05-07 08:29 | 41.49577 | 105.97345 | 36256 ft | 447 kts | 254° |
| 2026-05-07 08:30 | 41.47251 | 105.89713 | 36256 ft | 446 kts | 254° |
| 2026-05-07 08:30 | 41.44911 | 105.82043 | 36255 ft | 445 kts | 254° |
| 2026-05-07 08:31 | 41.42597 | 105.74439 | 36256 ft | 444 kts | 254° |
| 2026-05-07 08:31 | 41.40270 | 105.66795 | 36257 ft | 444 kts | 253° |
| 2026-05-07 08:32 | 41.37940 | 105.59173 | 36256 ft | 443 kts | 253° |
| 2026-05-07 08:32 | 41.35604 | 105.51633 | 36256 ft | 442 kts | 253° |
| 2026-05-07 08:33 | 41.33260 | 105.44106 | 36257 ft | 441 kts | 253° |
| 2026-05-07 08:33 | 41.30905 | 105.36557 | 36256 ft | 440 kts | 253° |
| 2026-05-07 08:34 | 41.28565 | 105.29072 | 36255 ft | 439 kts | 253° |
| 2026-05-07 08:34 | 41.26212 | 105.21567 | 36256 ft | 438 kts | 253° |
| 2026-05-07 08:35 | 41.23876 | 105.14134 | 36256 ft | 437 kts | 253° |
| 2026-05-07 08:35 | 41.21540 | 105.06721 | 36255 ft | 436 kts | 253° |
| 2026-05-07 08:36 | 41.19185 | 104.99270 | 36256 ft | 436 kts | 252° |
| 2026-05-07 08:36 | 41.16831 | 104.91842 | 36256 ft | 436 kts | 252° |
| 2026-05-07 08:37 | 41.14489 | 104.84471 | 36263 ft | 435 kts | 252° |
| 2026-05-07 08:37 | 41.12131 | 104.77074 | 36265 ft | 434 kts | 252° |
| 2026-05-07 08:38 | 41.09787 | 104.69738 | 36265 ft | 434 kts | 252° |
| 2026-05-07 08:38 | 41.07492 | 104.62319 | 36264 ft | 433 kts | 253° |
| 2026-05-07 08:39 | 41.05269 | 104.54946 | 36266 ft | 433 kts | 253° |
| 2026-05-07 08:39 | 41.03017 | 104.47527 | 36261 ft | 432 kts | 253° |
| 2026-05-07 08:40 | 41.00827 | 104.40158 | 36264 ft | 430 kts | 256° |
| 2026-05-07 08:40 | 40.99678 | 104.32495 | 36264 ft | 421 kts | 269° |
| 2026-05-07 08:41 | 41.00156 | 104.24818 | 36264 ft | 417 kts | 284° |
| 2026-05-07 08:41 | 41.01967 | 104.17548 | 36265 ft | 419 kts | 290° |
| 2026-05-07 08:42 | 41.04073 | 104.10326 | 36265 ft | 419 kts | 290° |
| 2026-05-07 08:42 | 41.06182 | 104.03145 | 36266 ft | 420 kts | 290° |
| 2026-05-07 08:43 | 41.08276 | 103.95898 | 36272 ft | 421 kts | 290° |
| 2026-05-07 08:43 | 41.10348 | 103.88647 | 36275 ft | 423 kts | 289° |
| 2026-05-07 08:44 | 41.12433 | 103.81316 | 36265 ft | 424 kts | 289° |
| 2026-05-07 08:44 | 41.14502 | 103.74025 | 36264 ft | 425 kts | 289° |
| 2026-05-07 08:45 | 41.16587 | 103.66661 | 36266 ft | 425 kts | 289° |
| 2026-05-07 08:45 | 41.18657 | 103.59331 | 36262 ft | 426 kts | 289° |
| 2026-05-07 08:46 | 41.20735 | 103.51949 | 36248 ft | 426 kts | 289° |
| 2026-05-07 08:46 | 41.22808 | 103.44560 | 36245 ft | 426 kts | 289° |
| 2026-05-07 08:47 | 41.24872 | 103.37185 | 36244 ft | 427 kts | 289° |
| 2026-05-07 08:47 | 41.26931 | 103.29808 | 36243 ft | 428 kts | 289° |
| 2026-05-07 08:48 | 41.29000 | 103.22368 | 36250 ft | 428 kts | 289° |
| 2026-05-07 08:48 | 41.31054 | 103.14967 | 36246 ft | 428 kts | 289° |
| 2026-05-07 08:49 | 41.33115 | 103.07515 | 36248 ft | 429 kts | 289° |
| 2026-05-07 08:49 | 41.35175 | 103.00043 | 36242 ft | 429 kts | 289° |
| 2026-05-07 08:50 | 41.37264 | 102.92628 | 36238 ft | 430 kts | 290° |
| 2026-05-07 08:50 | 41.39431 | 102.85175 | 36237 ft | 431 kts | 290° |
| 2026-05-07 08:51 | 41.41585 | 102.77746 | 36238 ft | 432 kts | 290° |
| 2026-05-07 08:51 | 41.43746 | 102.70231 | 36238 ft | 433 kts | 289° |
| 2026-05-07 08:52 | 41.45903 | 102.62747 | 36238 ft | 434 kts | 290° |
| 2026-05-07 08:52 | 41.48057 | 102.55241 | 36237 ft | 435 kts | 290° |
| 2026-05-07 08:53 | 41.50224 | 102.47670 | 36238 ft | 437 kts | 289° |
| 2026-05-07 08:53 | 41.52392 | 102.40079 | 36236 ft | 438 kts | 290° |
| 2026-05-07 08:54 | 41.54552 | 102.32492 | 36238 ft | 440 kts | 289° |
| 2026-05-07 08:54 | 41.56727 | 102.24830 | 36238 ft | 441 kts | 289° |
| 2026-05-07 08:55 | 41.58891 | 102.17184 | 36237 ft | 443 kts | 289° |
| 2026-05-07 08:55 | 41.61069 | 102.09464 | 36236 ft | 443 kts | 289° |
| 2026-05-07 08:56 | 41.63236 | 102.01762 | 36232 ft | 444 kts | 289° |
| 2026-05-07 08:56 | 41.65409 | 101.94013 | 36229 ft | 445 kts | 289° |
| 2026-05-07 08:57 | 41.67565 | 101.86302 | 36229 ft | 445 kts | 289° |
| 2026-05-07 08:57 | 41.69732 | 101.78525 | 36228 ft | 445 kts | 289° |
| 2026-05-07 08:58 | 41.71896 | 101.70739 | 36228 ft | 445 kts | 289° |
| 2026-05-07 08:58 | 41.74043 | 101.62987 | 36229 ft | 445 kts | 289° |
| 2026-05-07 08:59 | 41.76183 | 101.55239 | 36228 ft | 444 kts | 289° |
| 2026-05-07 08:59 | 41.78329 | 101.47443 | 36227 ft | 444 kts | 289° |
| 2026-05-07 09:00 | 41.80455 | 101.39697 | 36221 ft | 444 kts | 289° |
| 2026-05-07 09:00 | 41.82582 | 101.31923 | 36219 ft | 444 kts | 289° |
| 2026-05-07 09:01 | 41.84537 | 101.24108 | 36219 ft | 443 kts | 282° |
| 2026-05-07 09:01 | 41.85293 | 101.15912 | 36219 ft | 442 kts | 273° |
| 2026-05-07 09:02 | 41.85546 | 101.07647 | 36219 ft | 443 kts | 272° |
| 2026-05-07 09:02 | 41.85712 | 100.99435 | 36219 ft | 443 kts | 271° |
| 2026-05-07 09:03 | 41.85883 | 100.91149 | 36219 ft | 443 kts | 272° |
| 2026-05-07 09:03 | 41.86063 | 100.82929 | 36219 ft | 443 kts | 272° |
| 2026-05-07 09:04 | 41.86244 | 100.74636 | 36219 ft | 444 kts | 272° |
| 2026-05-07 09:04 | 41.86420 | 100.66386 | 36219 ft | 445 kts | 271° |
| 2026-05-07 09:05 | 41.86590 | 100.58060 | 36219 ft | 446 kts | 271° |
| 2026-05-07 09:05 | 41.86754 | 100.49734 | 36219 ft | 447 kts | 271° |
| 2026-05-07 09:06 | 41.86912 | 100.41379 | 36219 ft | 448 kts | 271° |
| 2026-05-07 09:06 | 41.87064 | 100.33058 | 36219 ft | 449 kts | 271° |
| 2026-05-07 09:07 | 41.87210 | 100.24703 | 36219 ft | 449 kts | 271° |
| 2026-05-07 09:07 | 41.87351 | 100.16283 | 36209 ft | 450 kts | 271° |
| 2026-05-07 09:08 | 41.87486 | 100.07911 | 36209 ft | 450 kts | 271° |
| 2026-05-07 09:08 | 41.87593 | 100.00909 | 36205 ft | 451 kts | 271° |
| 2026-05-07 09:09 | 41.87737 | 99.91121 | 36200 ft | 450 kts | 271° |
| 2026-05-07 09:09 | 41.87834 | 99.84135 | 36201 ft | 449 kts | 271° |
| 2026-05-07 09:10 | 41.87945 | 99.75755 | 36200 ft | 448 kts | 271° |
| 2026-05-07 09:10 | 41.88050 | 99.67375 | 36201 ft | 448 kts | 271° |
| 2026-05-07 09:11 | 41.88148 | 99.59045 | 36201 ft | 447 kts | 271° |
| 2026-05-07 09:11 | 41.88241 | 99.50675 | 36201 ft | 447 kts | 271° |
| 2026-05-07 09:12 | 41.88327 | 99.42381 | 36200 ft | 446 kts | 271° |
| 2026-05-07 09:12 | 41.88407 | 99.34031 | 36200 ft | 446 kts | 271° |
| 2026-05-07 09:13 | 41.88481 | 99.25765 | 36197 ft | 445 kts | 271° |
| 2026-05-07 09:13 | 41.88549 | 99.17430 | 36194 ft | 445 kts | 270° |
| 2026-05-07 09:14 | 41.88611 | 99.09151 | 36194 ft | 445 kts | 270° |
| 2026-05-07 09:14 | 41.88667 | 99.00840 | 36187 ft | 445 kts | 270° |
| 2026-05-07 09:15 | 41.88717 | 98.92576 | 36195 ft | 445 kts | 270° |
| 2026-05-07 09:15 | 41.88761 | 98.84249 | 36187 ft | 445 kts | 270° |
| 2026-05-07 09:16 | 41.88799 | 98.75976 | 36194 ft | 446 kts | 270° |
| 2026-05-07 09:16 | 41.88832 | 98.67632 | 36195 ft | 446 kts | 270° |
| 2026-05-07 09:17 | 41.88858 | 98.59327 | 36197 ft | 447 kts | 270° |
| 2026-05-07 09:17 | 41.88878 | 98.50956 | 36188 ft | 448 kts | 270° |
| 2026-05-07 09:18 | 41.88892 | 98.42619 | 36191 ft | 449 kts | 270° |
| 2026-05-07 09:18 | 41.88900 | 98.34213 | 36189 ft | 450 kts | 270° |
| 2026-05-07 09:19 | 41.88902 | 98.25785 | 36183 ft | 451 kts | 270° |
| 2026-05-07 09:19 | 41.88898 | 98.17405 | 36180 ft | 452 kts | 270° |
| 2026-05-07 09:20 | 41.88888 | 98.08960 | 36182 ft | 452 kts | 270° |
| 2026-05-07 09:20 | 41.88872 | 98.00497 | 36184 ft | 453 kts | 270° |
| 2026-05-07 09:21 | 41.88849 | 97.92071 | 36182 ft | 453 kts | 270° |
| 2026-05-07 09:21 | 41.88820 | 97.83656 | 36185 ft | 453 kts | 270° |
| 2026-05-07 09:22 | 41.88785 | 97.75181 | 36180 ft | 452 kts | 269° |
| 2026-05-07 09:22 | 41.88744 | 97.66781 | 36180 ft | 452 kts | 269° |
| 2026-05-07 09:23 | 41.88697 | 97.58328 | 36184 ft | 451 kts | 269° |
| 2026-05-07 09:23 | 41.88644 | 97.49941 | 36174 ft | 451 kts | 269° |
| 2026-05-07 09:24 | 41.88584 | 97.41495 | 36175 ft | 450 kts | 269° |
| 2026-05-07 09:24 | 41.88519 | 97.33132 | 36174 ft | 450 kts | 269° |
| 2026-05-07 09:25 | 41.88447 | 97.24753 | 36176 ft | 450 kts | 269° |
| 2026-05-07 09:25 | 41.88370 | 97.16340 | 36175 ft | 450 kts | 269° |
| 2026-05-07 09:26 | 41.88286 | 97.07934 | 36174 ft | 449 kts | 269° |
| 2026-05-07 09:26 | 41.88196 | 96.99574 | 36175 ft | 450 kts | 269° |
| 2026-05-07 09:27 | 41.88100 | 96.91142 | 36173 ft | 450 kts | 269° |
| 2026-05-07 09:28 | 41.87944 | 96.78554 | 36176 ft | 451 kts | 269° |
| 2026-05-07 09:28 | 41.87833 | 96.70164 | 36165 ft | 452 kts | 268° |
| 2026-05-07 09:29 | 41.87714 | 96.61691 | 36163 ft | 453 kts | 268° |
| 2026-05-07 09:29 | 41.87590 | 96.53260 | 36161 ft | 454 kts | 268° |
| 2026-05-07 09:30 | 41.87459 | 96.44758 | 36161 ft | 455 kts | 268° |
| 2026-05-07 09:30 | 41.87321 | 96.36274 | 36165 ft | 457 kts | 268° |
| 2026-05-07 09:31 | 41.87177 | 96.27739 | 36165 ft | 457 kts | 268° |
| 2026-05-07 09:31 | 41.87049 | 96.19239 | 36161 ft | 458 kts | 269° |
| 2026-05-07 09:32 | 41.87013 | 96.10677 | 36161 ft | 458 kts | 269° |
| 2026-05-07 09:32 | 41.86985 | 96.02104 | 36164 ft | 459 kts | 269° |
| 2026-05-07 09:33 | 41.86937 | 95.93585 | 36165 ft | 459 kts | 269° |
| 2026-05-07 09:33 | 41.86873 | 95.85008 | 36155 ft | 459 kts | 269° |
| 2026-05-07 09:34 | 41.86801 | 95.76471 | 36153 ft | 459 kts | 269° |
| 2026-05-07 09:34 | 41.86723 | 95.67905 | 36153 ft | 458 kts | 269° |
| 2026-05-07 09:35 | 41.86639 | 95.59395 | 36151 ft | 458 kts | 269° |
| 2026-05-07 09:35 | 41.86550 | 95.50825 | 36155 ft | 458 kts | 269° |
| 2026-05-07 09:36 | 41.86452 | 95.42265 | 36155 ft | 458 kts | 269° |
| 2026-05-07 09:36 | 41.86351 | 95.33776 | 36154 ft | 457 kts | 268° |
| 2026-05-07 09:37 | 41.86715 | 95.25236 | 36152 ft | 458 kts | 279° |
| 2026-05-07 09:37 | 41.88768 | 95.17168 | 36153 ft | 462 kts | 296° |
| 2026-05-07 09:38 | 41.92550 | 95.10094 | 36132 ft | 468 kts | 307° |
| 2026-05-07 09:38 | 41.96834 | 95.03524 | 36146 ft | 470 kts | 309° |
| 2026-05-07 09:39 | 42.01179 | 94.96995 | 36146 ft | 470 kts | 309° |
| 2026-05-07 09:39 | 42.05523 | 94.90393 | 36146 ft | 471 kts | 309° |
| 2026-05-07 09:40 | 42.09856 | 94.83746 | 36146 ft | 472 kts | 309° |
| 2026-05-07 09:40 | 42.14163 | 94.77107 | 36143 ft | 473 kts | 309° |
| 2026-05-07 09:41 | 42.18496 | 94.70415 | 36145 ft | 473 kts | 309° |
| 2026-05-07 09:41 | 42.22825 | 94.63716 | 36145 ft | 473 kts | 309° |
| 2026-05-07 09:42 | 42.27141 | 94.57021 | 36131 ft | 474 kts | 309° |
| 2026-05-07 09:42 | 42.31470 | 94.50293 | 36143 ft | 474 kts | 309° |
| 2026-05-07 09:43 | 42.35776 | 94.43584 | 36137 ft | 474 kts | 309° |
| 2026-05-07 09:43 | 42.40085 | 94.36856 | 36129 ft | 474 kts | 309° |
| 2026-05-07 09:44 | 42.44417 | 94.30075 | 36145 ft | 474 kts | 309° |
| 2026-05-07 09:44 | 42.48714 | 94.23336 | 36128 ft | 474 kts | 309° |
| 2026-05-07 09:45 | 42.53039 | 94.16535 | 36130 ft | 474 kts | 309° |
| 2026-05-07 09:45 | 42.57328 | 94.09776 | 36145 ft | 474 kts | 309° |
| 2026-05-07 09:46 | 42.61637 | 94.02969 | 36129 ft | 474 kts | 309° |
| 2026-05-07 09:46 | 42.65911 | 93.96201 | 36122 ft | 474 kts | 309° |
| 2026-05-07 09:47 | 42.70222 | 93.89359 | 36127 ft | 475 kts | 309° |
| 2026-05-07 09:47 | 42.74501 | 93.82554 | 36128 ft | 474 kts | 309° |
| 2026-05-07 09:48 | 42.78776 | 93.75740 | 36126 ft | 474 kts | 309° |
| 2026-05-07 09:48 | 42.82938 | 93.68747 | 36131 ft | 472 kts | 302° |
| 2026-05-07 09:49 | 42.85834 | 93.60803 | 36133 ft | 470 kts | 290° |
| 2026-05-07 09:49 | 42.88044 | 93.52372 | 36146 ft | 470 kts | 288° |
| 2026-05-07 09:50 | 42.90111 | 93.43937 | 36145 ft | 470 kts | 288° |
| 2026-05-07 09:50 | 42.92187 | 93.35455 | 36146 ft | 470 kts | 288° |
| 2026-05-07 09:51 | 42.94185 | 93.27349 | 36146 ft | 471 kts | 288° |
| 2026-05-07 09:51 | 42.96279 | 93.18861 | 36132 ft | 471 kts | 288° |
| 2026-05-07 09:52 | 42.98370 | 93.10362 | 36144 ft | 471 kts | 288° |
| 2026-05-07 09:52 | 43.00441 | 93.01911 | 36132 ft | 472 kts | 288° |
| 2026-05-07 09:53 | 43.02524 | 92.93376 | 36129 ft | 472 kts | 288° |
| 2026-05-07 09:53 | 43.04586 | 92.84897 | 36145 ft | 471 kts | 288° |
| 2026-05-07 09:54 | 43.06653 | 92.76364 | 36131 ft | 471 kts | 288° |
| 2026-05-07 09:54 | 43.08701 | 92.67877 | 36125 ft | 472 kts | 288° |
| 2026-05-07 09:55 | 43.10758 | 92.59322 | 36124 ft | 472 kts | 288° |
| 2026-05-07 09:55 | 43.12799 | 92.50803 | 36127 ft | 472 kts | 288° |
| 2026-05-07 09:56 | 43.14499 | 92.43680 | 36132 ft | 473 kts | 288° |
| 2026-05-07 09:56 | 43.16541 | 92.35094 | 36124 ft | 472 kts | 288° |
| 2026-05-07 09:57 | 43.18563 | 92.26563 | 36122 ft | 472 kts | 288° |
| 2026-05-07 09:57 | 43.20577 | 92.18031 | 36122 ft | 472 kts | 287° |
| 2026-05-07 09:58 | 43.22596 | 92.09447 | 36118 ft | 472 kts | 287° |
| 2026-05-07 09:58 | 43.24597 | 92.00902 | 36115 ft | 471 kts | 287° |
| 2026-05-07 09:59 | 43.26602 | 91.92312 | 36117 ft | 473 kts | 287° |
| 2026-05-07 09:59 | 43.28590 | 91.83760 | 36120 ft | 473 kts | 287° |
| 2026-05-07 10:00 | 43.30591 | 91.75118 | 36116 ft | 473 kts | 287° |
| 2026-05-07 10:00 | 43.32570 | 91.66537 | 36113 ft | 473 kts | 287° |
| 2026-05-07 10:01 | 43.34554 | 91.57904 | 36120 ft | 473 kts | 287° |
| 2026-05-07 10:01 | 43.36521 | 91.49312 | 36116 ft | 473 kts | 287° |
| 2026-05-07 10:02 | 43.38495 | 91.40653 | 36119 ft | 473 kts | 287° |
| 2026-05-07 10:02 | 43.40449 | 91.32048 | 36112 ft | 473 kts | 287° |
| 2026-05-07 10:03 | 43.42405 | 91.23406 | 36120 ft | 473 kts | 287° |
| 2026-05-07 10:03 | 43.44336 | 91.14798 | 36119 ft | 473 kts | 287° |
| 2026-05-07 10:04 | 43.46274 | 91.06135 | 36118 ft | 473 kts | 287° |
| 2026-05-07 10:04 | 43.48198 | 90.97502 | 36121 ft | 473 kts | 287° |
| 2026-05-07 10:05 | 43.50124 | 90.88830 | 36120 ft | 473 kts | 287° |
| 2026-05-07 10:05 | 43.52036 | 90.80185 | 36115 ft | 473 kts | 287° |
| 2026-05-07 10:06 | 43.53944 | 90.71526 | 36118 ft | 473 kts | 287° |
| 2026-05-07 10:06 | 43.55851 | 90.62836 | 36118 ft | 472 kts | 287° |
| 2026-05-07 10:07 | 43.57751 | 90.54139 | 36116 ft | 472 kts | 287° |
| 2026-05-07 10:07 | 43.59631 | 90.45503 | 36120 ft | 472 kts | 287° |
| 2026-05-07 10:08 | 43.61506 | 90.36849 | 36108 ft | 472 kts | 287° |
| 2026-05-07 10:08 | 43.63382 | 90.28157 | 36105 ft | 471 kts | 287° |
| 2026-05-07 10:09 | 43.65241 | 90.19513 | 36107 ft | 471 kts | 287° |
| 2026-05-07 10:09 | 43.67105 | 90.10806 | 36131 ft | 471 kts | 287° |
| 2026-05-07 10:09 | 43.68024 | 90.06510 | 36359 ft | 469 kts | 287° |
| 2026-05-07 10:10 | 43.68982 | 90.02190 | 36636 ft | 467 kts | 287° |
| 2026-05-07 10:10 | 43.69960 | 89.97908 | 36865 ft | 465 kts | 288° |
| 2026-05-07 10:10 | 43.70931 | 89.93704 | 37154 ft | 462 kts | 288° |
| 2026-05-07 10:10 | 43.71905 | 89.89478 | 37429 ft | 458 kts | 288° |
| 2026-05-07 10:11 | 43.72869 | 89.85278 | 37642 ft | 456 kts | 288° |
| 2026-05-07 10:11 | 43.73822 | 89.81094 | 37786 ft | 456 kts | 287° |
| 2026-05-07 10:11 | 43.74773 | 89.76899 | 37894 ft | 456 kts | 287° |
| 2026-05-07 10:12 | 43.76664 | 89.68503 | 38089 ft | 457 kts | 287° |
| 2026-05-07 10:12 | 43.78546 | 89.60109 | 38110 ft | 461 kts | 287° |
| 2026-05-07 10:13 | 43.80454 | 89.51571 | 38102 ft | 463 kts | 287° |
| 2026-05-07 10:13 | 43.82391 | 89.43105 | 38095 ft | 463 kts | 288° |
| 2026-05-07 10:14 | 43.84375 | 89.34586 | 38099 ft | 463 kts | 288° |
| 2026-05-07 10:14 | 43.86346 | 89.26077 | 38096 ft | 463 kts | 288° |
| 2026-05-07 10:15 | 43.88293 | 89.17604 | 38103 ft | 463 kts | 288° |
| 2026-05-07 10:15 | 43.90244 | 89.09065 | 38102 ft | 463 kts | 288° |
| 2026-05-07 10:16 | 43.92174 | 89.00581 | 38099 ft | 463 kts | 288° |
| 2026-05-07 10:16 | 43.94105 | 88.92064 | 38098 ft | 463 kts | 288° |
| 2026-05-07 10:17 | 43.96038 | 88.83505 | 38101 ft | 463 kts | 288° |
| 2026-05-07 10:17 | 43.98039 | 88.74973 | 38099 ft | 463 kts | 290° |
| 2026-05-07 10:18 | 44.00207 | 88.66590 | 38099 ft | 463 kts | 290° |
| 2026-05-07 10:18 | 44.02393 | 88.58163 | 38093 ft | 462 kts | 290° |
| 2026-05-07 10:19 | 44.04529 | 88.49777 | 38100 ft | 461 kts | 290° |
| 2026-05-07 10:19 | 44.06652 | 88.41339 | 38099 ft | 461 kts | 290° |
| 2026-05-07 10:20 | 44.08768 | 88.32886 | 38100 ft | 461 kts | 290° |
| 2026-05-07 10:20 | 44.10869 | 88.24461 | 38093 ft | 462 kts | 290° |
| 2026-05-07 10:21 | 44.12963 | 88.16043 | 38090 ft | 463 kts | 290° |
| 2026-05-07 10:21 | 44.14640 | 88.07377 | 38084 ft | 463 kts | 278° |
| 2026-05-07 10:22 | 44.14583 | 87.98439 | 38086 ft | 466 kts | 261° |
| 2026-05-07 10:22 | 44.12488 | 87.89870 | 38091 ft | 470 kts | 243° |
| 2026-05-07 10:23 | 44.08825 | 87.82346 | 38092 ft | 473 kts | 235° |
| 2026-05-07 10:23 | 44.04827 | 87.75091 | 38093 ft | 474 kts | 234° |
| 2026-05-07 10:24 | 44.00785 | 87.67820 | 38087 ft | 474 kts | 234° |
| 2026-05-07 10:24 | 43.96802 | 87.60586 | 38086 ft | 474 kts | 234° |
| 2026-05-07 10:25 | 43.93002 | 87.53655 | 38090 ft | 474 kts | 234° |
| 2026-05-07 10:25 | 43.89061 | 87.46212 | 38092 ft | 473 kts | 238° |
| 2026-05-07 10:26 | 43.85546 | 87.38482 | 38091 ft | 473 kts | 240° |
| 2026-05-07 10:26 | 43.82070 | 87.30698 | 38084 ft | 474 kts | 240° |
| 2026-05-07 10:27 | 43.78554 | 87.23027 | 38095 ft | 474 kts | 239° |
| 2026-05-07 10:27 | 43.74974 | 87.15347 | 38094 ft | 475 kts | 239° |
| 2026-05-07 10:28 | 43.71372 | 87.07667 | 38093 ft | 475 kts | 239° |
| 2026-05-07 10:28 | 43.67783 | 87.00043 | 38090 ft | 476 kts | 239° |
| 2026-05-07 10:29 | 43.64303 | 86.92663 | 38091 ft | 476 kts | 239° |
| 2026-05-07 10:29 | 43.60696 | 86.85032 | 38098 ft | 476 kts | 239° |
| 2026-05-07 10:30 | 43.56174 | 86.72995 | 38108 ft | 470 kts | 256° |
| 2026-05-07 10:30 | 43.55348 | 86.64109 | 38096 ft | 467 kts | 274° |
| 2026-05-07 10:31 | 43.56101 | 86.55283 | 38105 ft | 466 kts | 280° |
| 2026-05-07 10:31 | 43.57143 | 86.46445 | 38094 ft | 467 kts | 281° |
| 2026-05-07 10:32 | 43.58146 | 86.37629 | 38106 ft | 467 kts | 280° |
| 2026-05-07 10:32 | 43.59090 | 86.28765 | 38102 ft | 467 kts | 279° |
| 2026-05-07 10:33 | 43.60020 | 86.19859 | 38105 ft | 467 kts | 279° |
| 2026-05-07 10:33 | 43.60901 | 86.11372 | 38098 ft | 467 kts | 279° |
| 2026-05-07 10:34 | 43.61838 | 86.02477 | 38109 ft | 466 kts | 280° |
| 2026-05-07 10:34 | 43.62808 | 85.93624 | 38096 ft | 467 kts | 280° |
| 2026-05-07 10:35 | 43.63770 | 85.84803 | 38111 ft | 466 kts | 280° |
| 2026-05-07 10:35 | 43.64606 | 85.75882 | 38098 ft | 468 kts | 277° |
| 2026-05-07 10:36 | 43.65261 | 85.66998 | 38107 ft | 467 kts | 277° |
| 2026-05-07 10:36 | 43.65916 | 85.58059 | 38096 ft | 468 kts | 277° |
| 2026-05-07 10:37 | 43.66593 | 85.49161 | 38101 ft | 468 kts | 277° |
| 2026-05-07 10:37 | 43.67279 | 85.40219 | 38101 ft | 468 kts | 277° |
| 2026-05-07 10:38 | 43.67962 | 85.31262 | 38108 ft | 467 kts | 277° |
| 2026-05-07 10:38 | 43.68633 | 85.22369 | 38100 ft | 468 kts | 277° |
| 2026-05-07 10:39 | 43.68578 | 85.13345 | 38097 ft | 471 kts | 263° |
| 2026-05-07 10:39 | 43.66626 | 85.04732 | 38087 ft | 475 kts | 245° |
| 2026-05-07 10:40 | 43.63243 | 84.96895 | 38101 ft | 477 kts | 239° |
| 2026-05-07 10:40 | 43.59598 | 84.89219 | 38098 ft | 478 kts | 238° |
| 2026-05-07 10:41 | 43.55927 | 84.81532 | 38096 ft | 478 kts | 239° |
| 2026-05-07 10:41 | 43.52301 | 84.73871 | 38098 ft | 478 kts | 239° |
| 2026-05-07 10:42 | 43.48688 | 84.66211 | 38101 ft | 478 kts | 239° |
| 2026-05-07 10:42 | 43.45058 | 84.58524 | 38107 ft | 478 kts | 239° |
| 2026-05-07 10:43 | 43.42032 | 84.52135 | 38118 ft | 478 kts | 239° |
| 2026-05-07 10:43 | 43.38421 | 84.44414 | 38117 ft | 478 kts | 242° |
| 2026-05-07 10:44 | 43.35953 | 84.36066 | 38115 ft | 472 kts | 259° |
| 2026-05-07 10:44 | 43.35446 | 84.27178 | 38119 ft | 467 kts | 276° |
| 2026-05-07 10:45 | 43.36131 | 84.18265 | 38124 ft | 467 kts | 279° |
| 2026-05-07 10:45 | 43.36975 | 84.09453 | 38127 ft | 467 kts | 279° |
| 2026-05-07 10:46 | 43.37807 | 84.00560 | 38127 ft | 467 kts | 278° |
| 2026-05-07 10:46 | 43.38596 | 83.91716 | 38127 ft | 468 kts | 278° |
| 2026-05-07 10:47 | 43.39371 | 83.82807 | 38127 ft | 468 kts | 278° |
| 2026-05-07 10:47 | 43.40133 | 83.73948 | 38127 ft | 468 kts | 278° |
| 2026-05-07 10:48 | 43.40894 | 83.65030 | 38126 ft | 468 kts | 278° |
| 2026-05-07 10:48 | 43.41644 | 83.56172 | 38130 ft | 469 kts | 278° |
| 2026-05-07 10:49 | 43.42393 | 83.47233 | 38097 ft | 469 kts | 278° |
| 2026-05-07 10:49 | 43.43133 | 83.38331 | 38100 ft | 470 kts | 278° |
| 2026-05-07 10:50 | 43.43662 | 83.29404 | 38101 ft | 471 kts | 274° |
| 2026-05-07 10:50 | 43.43911 | 83.20383 | 38100 ft | 471 kts | 274° |
| 2026-05-07 10:51 | 43.44165 | 83.11342 | 38098 ft | 472 kts | 274° |
| 2026-05-07 10:51 | 43.44460 | 83.02351 | 38096 ft | 472 kts | 274° |
| 2026-05-07 10:52 | 43.44772 | 82.93358 | 38098 ft | 472 kts | 274° |
| 2026-05-07 10:52 | 43.45080 | 82.84311 | 38101 ft | 473 kts | 274° |
| 2026-05-07 10:53 | 43.45379 | 82.75300 | 38100 ft | 473 kts | 274° |
| 2026-05-07 10:53 | 43.45672 | 82.66218 | 38102 ft | 474 kts | 274° |
| 2026-05-07 10:54 | 43.45955 | 82.57188 | 38100 ft | 474 kts | 274° |
| 2026-05-07 10:54 | 43.46233 | 82.48086 | 38101 ft | 474 kts | 274° |
| 2026-05-07 10:55 | 43.46502 | 82.39031 | 38102 ft | 474 kts | 274° |
| 2026-05-07 10:55 | 43.46764 | 82.29998 | 38102 ft | 475 kts | 274° |
| 2026-05-07 10:56 | 43.47021 | 82.20880 | 38100 ft | 475 kts | 274° |
| 2026-05-07 10:56 | 43.47270 | 82.11817 | 38095 ft | 475 kts | 274° |
| 2026-05-07 10:57 | 43.47512 | 82.02695 | 38100 ft | 475 kts | 274° |
| 2026-05-07 10:57 | 43.47746 | 81.93633 | 38096 ft | 476 kts | 274° |
| 2026-05-07 10:58 | 43.47975 | 81.84491 | 38099 ft | 476 kts | 274° |
| 2026-05-07 10:58 | 43.48194 | 81.75421 | 38099 ft | 476 kts | 274° |
| 2026-05-07 10:59 | 43.48411 | 81.66339 | 38099 ft | 476 kts | 274° |
| 2026-05-07 10:59 | 43.48608 | 81.57200 | 38103 ft | 476 kts | 274° |
| 2026-05-07 11:00 | 43.48787 | 81.48071 | 38097 ft | 476 kts | 274° |
| 2026-05-07 11:00 | 43.48961 | 81.39009 | 38097 ft | 476 kts | 273° |
| 2026-05-07 11:01 | 43.49132 | 81.29863 | 38099 ft | 476 kts | 273° |
| 2026-05-07 11:01 | 43.49293 | 81.20799 | 38099 ft | 475 kts | 273° |
| 2026-05-07 11:02 | 43.49451 | 81.11708 | 38097 ft | 476 kts | 273° |
| 2026-05-07 11:02 | 43.49601 | 81.02592 | 38098 ft | 476 kts | 273° |
| 2026-05-07 11:03 | 43.49744 | 80.93478 | 38101 ft | 476 kts | 273° |
| 2026-05-07 11:03 | 43.49879 | 80.84342 | 38097 ft | 476 kts | 273° |
| 2026-05-07 11:04 | 43.50007 | 80.75269 | 38101 ft | 476 kts | 273° |
| 2026-05-07 11:04 | 43.50215 | 80.66144 | 38095 ft | 475 kts | 275° |
| 2026-05-07 11:05 | 43.50601 | 80.57101 | 38095 ft | 475 kts | 276° |
| 2026-05-07 11:05 | 43.50991 | 80.47997 | 38101 ft | 475 kts | 276° |
| 2026-05-07 11:06 | 43.51340 | 80.38946 | 38100 ft | 475 kts | 275° |
| 2026-05-07 11:06 | 43.51669 | 80.29835 | 38098 ft | 475 kts | 275° |
| 2026-05-07 11:07 | 43.51987 | 80.20725 | 38101 ft | 475 kts | 275° |
| 2026-05-07 11:07 | 43.52299 | 80.11650 | 38102 ft | 476 kts | 275° |
| 2026-05-07 11:08 | 43.52606 | 80.02510 | 38097 ft | 476 kts | 275° |
| 2026-05-07 11:08 | 43.52905 | 79.93395 | 38095 ft | 476 kts | 275° |
| 2026-05-07 11:09 | 43.53197 | 79.84310 | 38100 ft | 475 kts | 275° |
| 2026-05-07 11:09 | 43.53483 | 79.75196 | 38097 ft | 475 kts | 275° |
| 2026-05-07 11:10 | 43.53758 | 79.66145 | 38095 ft | 475 kts | 275° |
| 2026-05-07 11:10 | 43.54029 | 79.57024 | 38100 ft | 475 kts | 275° |
| 2026-05-07 11:11 | 43.54292 | 79.47925 | 38100 ft | 475 kts | 275° |
| 2026-05-07 11:11 | 43.54547 | 79.38859 | 38086 ft | 474 kts | 275° |
| 2026-05-07 11:12 | 43.54795 | 79.29810 | 38092 ft | 474 kts | 275° |
| 2026-05-07 11:12 | 43.55041 | 79.20695 | 38093 ft | 474 kts | 275° |
| 2026-05-07 11:13 | 43.55274 | 79.11642 | 38091 ft | 473 kts | 274° |
| 2026-05-07 11:13 | 43.55498 | 79.02544 | 38089 ft | 473 kts | 274° |
| 2026-05-07 11:14 | 43.55714 | 78.93521 | 38090 ft | 472 kts | 274° |
| 2026-05-07 11:14 | 43.55926 | 78.84439 | 38093 ft | 472 kts | 274° |
| 2026-05-07 11:15 | 43.56130 | 78.75420 | 38091 ft | 472 kts | 274° |
| 2026-05-07 11:15 | 43.56326 | 78.66416 | 38092 ft | 471 kts | 274° |
| 2026-05-07 11:16 | 43.56518 | 78.57363 | 38088 ft | 471 kts | 274° |
| 2026-05-07 11:16 | 43.56699 | 78.48380 | 38093 ft | 470 kts | 274° |
| 2026-05-07 11:17 | 43.56873 | 78.39342 | 38086 ft | 470 kts | 274° |
| 2026-05-07 11:17 | 43.57040 | 78.30360 | 38085 ft | 470 kts | 274° |
| 2026-05-07 11:18 | 43.57201 | 78.21336 | 38085 ft | 470 kts | 274° |
| 2026-05-07 11:18 | 43.57355 | 78.12318 | 38092 ft | 469 kts | 274° |
| 2026-05-07 11:19 | 43.57503 | 78.03298 | 38087 ft | 469 kts | 274° |
| 2026-05-07 11:19 | 43.57644 | 77.94341 | 38092 ft | 469 kts | 273° |
| 2026-05-07 11:20 | 43.57778 | 77.85324 | 38087 ft | 469 kts | 273° |
| 2026-05-07 11:20 | 43.57905 | 77.76354 | 38087 ft | 469 kts | 273° |
| 2026-05-07 11:21 | 43.58026 | 77.67334 | 38087 ft | 469 kts | 273° |
| 2026-05-07 11:21 | 43.58139 | 77.58359 | 38087 ft | 469 kts | 273° |
| 2026-05-07 11:22 | 43.58246 | 77.49403 | 38095 ft | 469 kts | 273° |
| 2026-05-07 11:22 | 43.58514 | 77.40410 | 38095 ft | 468 kts | 275° |
| 2026-05-07 11:23 | 43.58868 | 77.31481 | 38089 ft | 468 kts | 275° |
| 2026-05-07 11:23 | 43.59200 | 77.22491 | 38085 ft | 467 kts | 275° |
| 2026-05-07 11:24 | 43.59497 | 77.13563 | 38085 ft | 467 kts | 274° |
| 2026-05-07 11:24 | 43.59618 | 77.04572 | 38090 ft | 467 kts | 272° |
| 2026-05-07 11:25 | 43.59651 | 76.95648 | 38092 ft | 466 kts | 272° |
| 2026-05-07 11:25 | 43.59706 | 76.86685 | 38093 ft | 466 kts | 272° |
| 2026-05-07 11:26 | 43.59779 | 76.77798 | 38117 ft | 465 kts | 272° |
| 2026-05-07 11:26 | 43.59842 | 76.68857 | 38123 ft | 464 kts | 272° |
| 2026-05-07 11:27 | 43.59891 | 76.59981 | 38094 ft | 464 kts | 272° |
| 2026-05-07 11:27 | 43.59934 | 76.51062 | 38092 ft | 463 kts | 272° |
| 2026-05-07 11:28 | 43.59969 | 76.42336 | 37990 ft | 452 kts | 272° |
| 2026-05-07 11:28 | 43.59995 | 76.35097 | 38003 ft | 455 kts | 272° |
| 2026-05-07 11:29 | 43.60017 | 76.30721 | 38117 ft | 455 kts | 272° |
| 2026-05-07 11:29 | 43.60146 | 76.26337 | 38213 ft | 456 kts | 275° |
| 2026-05-07 11:29 | 43.60365 | 76.21942 | 38112 ft | 461 kts | 276° |
| 2026-05-07 11:29 | 43.60619 | 76.17522 | 38007 ft | 461 kts | 276° |
| 2026-05-07 11:30 | 43.61113 | 76.08700 | 37989 ft | 460 kts | 275° |
| 2026-05-07 11:30 | 43.61548 | 75.99923 | 37989 ft | 460 kts | 275° |
| 2026-05-07 11:31 | 43.61950 | 75.91103 | 37990 ft | 460 kts | 275° |
| 2026-05-07 11:31 | 43.62339 | 75.82282 | 37989 ft | 459 kts | 275° |
| 2026-05-07 11:32 | 43.62910 | 75.69104 | 37989 ft | 460 kts | 274° |
| 2026-05-07 11:33 | 43.63286 | 75.60263 | 37990 ft | 460 kts | 274° |
| 2026-05-07 11:33 | 43.63654 | 75.51477 | 37990 ft | 460 kts | 274° |
| 2026-05-07 11:34 | 43.64016 | 75.42626 | 37989 ft | 460 kts | 274° |
| 2026-05-07 11:34 | 43.64368 | 75.33792 | 37989 ft | 460 kts | 274° |
| 2026-05-07 11:35 | 43.64712 | 75.25007 | 37990 ft | 461 kts | 274° |
| 2026-05-07 11:35 | 43.65053 | 75.16134 | 37990 ft | 461 kts | 274° |
| 2026-05-07 11:36 | 43.65385 | 75.07336 | 37990 ft | 461 kts | 274° |
| 2026-05-07 11:36 | 43.65712 | 74.98470 | 37990 ft | 461 kts | 274° |
| 2026-05-07 11:37 | 43.66030 | 74.89659 | 37989 ft | 461 kts | 273° |
| 2026-05-07 11:37 | 43.66344 | 74.80800 | 37990 ft | 460 kts | 273° |
| 2026-05-07 11:38 | 43.66649 | 74.71960 | 37989 ft | 460 kts | 273° |
| 2026-05-07 11:38 | 43.66946 | 74.63171 | 37990 ft | 460 kts | 273° |
| 2026-05-07 11:39 | 43.67239 | 74.54328 | 37989 ft | 460 kts | 272° |
| 2026-05-07 11:39 | 43.67523 | 74.45536 | 38007 ft | 460 kts | 272° |
| 2026-05-07 11:40 | 43.67801 | 74.36680 | 37999 ft | 459 kts | 272° |
| 2026-05-07 11:40 | 43.68071 | 74.27905 | 37999 ft | 459 kts | 272° |
| 2026-05-07 11:41 | 43.68336 | 74.19065 | 37999 ft | 459 kts | 272° |
| 2026-05-07 11:41 | 43.68604 | 74.10297 | 37999 ft | 459 kts | 272° |
| 2026-05-07 11:42 | 43.68867 | 74.01458 | 37999 ft | 459 kts | 272° |
| 2026-05-07 11:42 | 43.69120 | 73.92687 | 37999 ft | 458 kts | 272° |
| 2026-05-07 11:43 | 43.69369 | 73.83877 | 37999 ft | 458 kts | 272° |
| 2026-05-07 11:43 | 43.69542 | 73.75112 | 37998 ft | 458 kts | 268° |
| 2026-05-07 11:44 | 43.69203 | 73.66297 | 37999 ft | 458 kts | 266° |
| 2026-05-07 11:44 | 43.68760 | 73.57545 | 37999 ft | 458 kts | 266° |
| 2026-05-07 11:45 | 43.68292 | 73.48761 | 37999 ft | 458 kts | 266° |
| 2026-05-07 11:45 | 43.67823 | 73.39965 | 37999 ft | 458 kts | 266° |
| 2026-05-07 11:46 | 43.67356 | 73.31228 | 37999 ft | 458 kts | 266° |
| 2026-05-07 11:46 | 43.66881 | 73.22429 | 37999 ft | 458 kts | 266° |
| 2026-05-07 11:47 | 43.66401 | 73.13676 | 37999 ft | 458 kts | 266° |
| 2026-05-07 11:47 | 43.65912 | 73.04888 | 37999 ft | 458 kts | 266° |
| 2026-05-07 11:48 | 43.65419 | 72.96161 | 37999 ft | 458 kts | 266° |
| 2026-05-07 11:48 | 43.64917 | 72.87381 | 37999 ft | 458 kts | 266° |
| 2026-05-07 11:49 | 43.64408 | 72.78596 | 37999 ft | 457 kts | 266° |
| 2026-05-07 11:49 | 43.63897 | 72.69885 | 38008 ft | 457 kts | 265° |
| 2026-05-07 11:50 | 43.63376 | 72.61124 | 38008 ft | 457 kts | 265° |
| 2026-05-07 11:50 | 43.62851 | 72.52428 | 38009 ft | 457 kts | 265° |
| 2026-05-07 11:51 | 43.62317 | 72.43680 | 38008 ft | 456 kts | 265° |
| 2026-05-07 11:51 | 43.61777 | 72.34945 | 38008 ft | 456 kts | 265° |
| 2026-05-07 11:52 | 43.61234 | 72.26263 | 38008 ft | 456 kts | 265° |
| 2026-05-07 11:52 | 43.60681 | 72.17529 | 38008 ft | 456 kts | 265° |
| 2026-05-07 11:53 | 43.60123 | 72.08836 | 38008 ft | 456 kts | 265° |
| 2026-05-07 11:53 | 43.59556 | 72.00100 | 38008 ft | 456 kts | 265° |
| 2026-05-07 11:54 | 43.58983 | 71.91379 | 38008 ft | 455 kts | 265° |
| 2026-05-07 11:54 | 43.58408 | 71.82716 | 38017 ft | 455 kts | 265° |
| 2026-05-07 11:55 | 43.57823 | 71.74011 | 38017 ft | 455 kts | 265° |
| 2026-05-07 11:55 | 43.57235 | 71.65371 | 38017 ft | 455 kts | 265° |
| 2026-05-07 11:56 | 43.56637 | 71.56668 | 38017 ft | 455 kts | 265° |
| 2026-05-07 11:56 | 43.56032 | 71.47965 | 38009 ft | 455 kts | 265° |
| 2026-05-07 11:57 | 43.55424 | 71.39311 | 38008 ft | 454 kts | 265° |
| 2026-05-07 11:57 | 43.54810 | 71.30673 | 38008 ft | 454 kts | 265° |
| 2026-05-07 11:58 | 43.54187 | 71.22000 | 38017 ft | 454 kts | 265° |
| 2026-05-07 11:58 | 43.53556 | 71.13319 | 38018 ft | 454 kts | 264° |
| 2026-05-07 11:59 | 43.52923 | 71.04688 | 38017 ft | 454 kts | 264° |
| 2026-05-07 11:59 | 43.52280 | 70.96019 | 38017 ft | 454 kts | 264° |
| 2026-05-07 12:00 | 43.51632 | 70.87356 | 38018 ft | 453 kts | 264° |
| 2026-05-07 12:00 | 43.50979 | 70.78768 | 38009 ft | 452 kts | 264° |
| 2026-05-07 12:01 | 43.50307 | 70.70133 | 38008 ft | 452 kts | 264° |
| 2026-05-07 12:01 | 43.49633 | 70.61569 | 38008 ft | 452 kts | 264° |
| 2026-05-07 12:02 | 43.48949 | 70.52931 | 38008 ft | 452 kts | 264° |
| 2026-05-07 12:02 | 43.48261 | 70.44314 | 38008 ft | 452 kts | 264° |
| 2026-05-07 12:03 | 43.47572 | 70.35764 | 38009 ft | 451 kts | 264° |
| 2026-05-07 12:03 | 43.46872 | 70.27171 | 38008 ft | 450 kts | 264° |
| 2026-05-07 12:04 | 43.46166 | 70.18578 | 38008 ft | 450 kts | 264° |
| 2026-05-07 12:04 | 43.45459 | 70.10053 | 38008 ft | 451 kts | 264° |
| 2026-05-07 12:05 | 43.44741 | 70.01475 | 37999 ft | 451 kts | 263° |
| 2026-05-07 12:05 | 43.44017 | 69.92897 | 37999 ft | 451 kts | 263° |
| 2026-05-07 12:06 | 43.43287 | 69.84332 | 37998 ft | 451 kts | 263° |
| 2026-05-07 12:06 | 43.42555 | 69.75814 | 37999 ft | 451 kts | 263° |
| 2026-05-07 12:07 | 43.41831 | 69.67233 | 37999 ft | 451 kts | 264° |
| 2026-05-07 12:07 | 43.41120 | 69.58657 | 37999 ft | 451 kts | 264° |
| 2026-05-07 12:08 | 43.40404 | 69.50123 | 37977 ft | 450 kts | 263° |
| 2026-05-07 12:08 | 43.39677 | 69.41562 | 37978 ft | 451 kts | 263° |
| 2026-05-07 12:09 | 43.38940 | 69.32987 | 37971 ft | 450 kts | 263° |
| 2026-05-07 12:09 | 43.38204 | 69.24491 | 37963 ft | 450 kts | 263° |
| 2026-05-07 12:10 | 43.37457 | 69.15925 | 37977 ft | 450 kts | 263° |
| 2026-05-07 12:10 | 43.36748 | 69.07419 | 37976 ft | 450 kts | 264° |
| 2026-05-07 12:11 | 43.36044 | 68.98842 | 37965 ft | 449 kts | 264° |
| 2026-05-07 12:11 | 43.35338 | 68.90367 | 37976 ft | 449 kts | 263° |
| 2026-05-07 12:12 | 43.34616 | 68.81823 | 37972 ft | 449 kts | 263° |
| 2026-05-07 12:12 | 43.33891 | 68.73338 | 37967 ft | 448 kts | 263° |
| 2026-05-07 12:13 | 43.33279 | 68.66242 | 37966 ft | 448 kts | 263° |
| 2026-05-07 12:13 | 43.32419 | 68.56356 | 37962 ft | 448 kts | 263° |
| 2026-05-07 12:14 | 43.31638 | 68.49271 | 37967 ft | 447 kts | 261° |
| 2026-05-07 12:14 | 43.30570 | 68.40897 | 37960 ft | 447 kts | 260° |
| 2026-05-07 12:15 | 43.29441 | 68.32529 | 37959 ft | 448 kts | 257° |
| 2026-05-07 12:15 | 43.27882 | 68.24237 | 37965 ft | 447 kts | 255° |
| 2026-05-07 12:16 | 43.26247 | 68.16033 | 37959 ft | 447 kts | 256° |
| 2026-05-07 12:16 | 43.24662 | 68.07777 | 37958 ft | 447 kts | 256° |
| 2026-05-07 12:17 | 43.23114 | 67.99513 | 37960 ft | 447 kts | 256° |
| 2026-05-07 12:17 | 43.21577 | 67.91285 | 37962 ft | 446 kts | 256° |
| 2026-05-07 12:18 | 43.20026 | 67.83023 | 37962 ft | 446 kts | 256° |
| 2026-05-07 12:18 | 43.18478 | 67.74829 | 37966 ft | 447 kts | 256° |
| 2026-05-07 12:19 | 43.16909 | 67.66576 | 37965 ft | 447 kts | 256° |
| 2026-05-07 12:19 | 43.15342 | 67.58365 | 37967 ft | 447 kts | 256° |
| 2026-05-07 12:20 | 43.13760 | 67.50113 | 37955 ft | 447 kts | 256° |
| 2026-05-07 12:20 | 43.12185 | 67.41915 | 37960 ft | 447 kts | 256° |
| 2026-05-07 12:21 | 43.10598 | 67.33681 | 37959 ft | 447 kts | 255° |
| 2026-05-07 12:21 | 43.08998 | 67.25434 | 37953 ft | 447 kts | 255° |
| 2026-05-07 12:22 | 43.07403 | 67.17246 | 37968 ft | 447 kts | 255° |
| 2026-05-07 12:22 | 43.05794 | 67.09014 | 37961 ft | 447 kts | 255° |
| 2026-05-07 12:23 | 43.04189 | 67.00835 | 37956 ft | 447 kts | 255° |
| 2026-05-07 12:23 | 43.02570 | 66.92617 | 37956 ft | 447 kts | 255° |
| 2026-05-07 12:24 | 43.00946 | 66.84410 | 37963 ft | 447 kts | 255° |
| 2026-05-07 12:24 | 42.99321 | 66.76229 | 37951 ft | 447 kts | 255° |
| 2026-05-07 12:25 | 42.97668 | 66.68019 | 37950 ft | 447 kts | 255° |
| 2026-05-07 12:25 | 42.96003 | 66.59862 | 37952 ft | 447 kts | 254° |
| 2026-05-07 12:26 | 42.94350 | 66.51700 | 37948 ft | 447 kts | 255° |
| 2026-05-07 12:26 | 42.92705 | 66.43495 | 37948 ft | 447 kts | 255° |
| 2026-05-07 12:27 | 42.91062 | 66.35335 | 37954 ft | 447 kts | 255° |
| 2026-05-07 12:27 | 42.89401 | 66.27135 | 37943 ft | 447 kts | 254° |
| 2026-05-07 12:28 | 42.87743 | 66.18991 | 37943 ft | 447 kts | 254° |
| 2026-05-07 12:28 | 42.86071 | 66.10810 | 37933 ft | 447 kts | 254° |
| 2026-05-07 12:29 | 42.84384 | 66.02636 | 37930 ft | 447 kts | 254° |
| 2026-05-07 12:29 | 42.82694 | 65.94522 | 37929 ft | 447 kts | 254° |
| 2026-05-07 12:30 | 42.80991 | 65.86373 | 37936 ft | 447 kts | 253° |
| 2026-05-07 12:30 | 42.79284 | 65.78230 | 37933 ft | 446 kts | 253° |
| 2026-05-07 12:31 | 42.77581 | 65.70118 | 37932 ft | 446 kts | 253° |
| 2026-05-07 12:31 | 42.75856 | 65.61963 | 37932 ft | 446 kts | 253° |
| 2026-05-07 12:32 | 42.74137 | 65.53870 | 37938 ft | 447 kts | 253° |
| 2026-05-07 12:32 | 42.72413 | 65.45776 | 37925 ft | 447 kts | 253° |
| 2026-05-07 12:33 | 42.69815 | 65.33635 | 37921 ft | 446 kts | 253° |
| 2026-05-07 12:33 | 42.68071 | 65.25524 | 37925 ft | 446 kts | 253° |
| 2026-05-07 12:34 | 42.66334 | 65.17475 | 37928 ft | 446 kts | 253° |
| 2026-05-07 12:34 | 42.64582 | 65.09389 | 37903 ft | 445 kts | 253° |
| 2026-05-07 12:35 | 42.62836 | 65.01360 | 37898 ft | 446 kts | 253° |
| 2026-05-07 12:35 | 42.61070 | 64.93273 | 37898 ft | 446 kts | 253° |
| 2026-05-07 12:36 | 42.59303 | 64.85206 | 37904 ft | 445 kts | 253° |
| 2026-05-07 12:36 | 42.57538 | 64.77181 | 37907 ft | 445 kts | 252° |
| 2026-05-07 12:37 | 42.55754 | 64.69102 | 37907 ft | 445 kts | 252° |
| 2026-05-07 12:37 | 42.53977 | 64.61084 | 37906 ft | 445 kts | 252° |
| 2026-05-07 12:38 | 42.52183 | 64.53016 | 37906 ft | 445 kts | 252° |
| 2026-05-07 12:38 | 42.50399 | 64.45027 | 37906 ft | 445 kts | 252° |
| 2026-05-07 12:39 | 42.48594 | 64.36971 | 37906 ft | 445 kts | 252° |
| 2026-05-07 12:39 | 42.46796 | 64.28977 | 37914 ft | 445 kts | 252° |
| 2026-05-07 12:40 | 42.44982 | 64.20933 | 37914 ft | 445 kts | 252° |
| 2026-05-07 12:40 | 42.43187 | 64.12934 | 37915 ft | 445 kts | 252° |
| 2026-05-07 12:41 | 42.41382 | 64.04896 | 37915 ft | 445 kts | 252° |
| 2026-05-07 12:41 | 42.39573 | 63.96873 | 37916 ft | 445 kts | 252° |
| 2026-05-07 12:42 | 42.37749 | 63.88932 | 37917 ft | 444 kts | 252° |
| 2026-05-07 12:42 | 42.35896 | 63.80938 | 37917 ft | 444 kts | 252° |
| 2026-05-07 12:43 | 42.34040 | 63.72942 | 37922 ft | 444 kts | 252° |
| 2026-05-07 12:43 | 42.32194 | 63.65002 | 37921 ft | 444 kts | 252° |
| 2026-05-07 12:44 | 42.30335 | 63.57031 | 37909 ft | 444 kts | 251° |
| 2026-05-07 12:44 | 42.28480 | 63.49103 | 37906 ft | 444 kts | 251° |
| 2026-05-07 12:45 | 42.26610 | 63.41140 | 37906 ft | 444 kts | 251° |
| 2026-05-07 12:45 | 42.24748 | 63.33238 | 37906 ft | 443 kts | 251° |
| 2026-05-07 12:46 | 42.22872 | 63.25306 | 37906 ft | 443 kts | 251° |
| 2026-05-07 12:46 | 42.20990 | 63.17375 | 37907 ft | 442 kts | 251° |
| 2026-05-07 12:47 | 42.19115 | 63.09506 | 37915 ft | 442 kts | 251° |
| 2026-05-07 12:47 | 42.17226 | 63.01601 | 37916 ft | 442 kts | 251° |
| 2026-05-07 12:48 | 42.15344 | 62.93741 | 37915 ft | 442 kts | 251° |
| 2026-05-07 12:48 | 42.13447 | 62.85837 | 37916 ft | 441 kts | 251° |
| 2026-05-07 12:49 | 42.11560 | 62.78004 | 37916 ft | 441 kts | 251° |
| 2026-05-07 12:49 | 42.09671 | 62.70184 | 37916 ft | 440 kts | 250° |
| 2026-05-07 12:50 | 42.07766 | 62.62332 | 37915 ft | 440 kts | 250° |
| 2026-05-07 12:50 | 42.05860 | 62.54480 | 37915 ft | 440 kts | 250° |
| 2026-05-07 12:51 | 42.03954 | 62.46683 | 37916 ft | 440 kts | 250° |
| 2026-05-07 12:51 | 42.02034 | 62.38854 | 37915 ft | 440 kts | 250° |
| 2026-05-07 12:52 | 42.00111 | 62.31033 | 37915 ft | 439 kts | 250° |
| 2026-05-07 12:52 | 41.98196 | 62.23270 | 37914 ft | 440 kts | 250° |
| 2026-05-07 12:53 | 41.96263 | 62.15458 | 37916 ft | 440 kts | 250° |
| 2026-05-07 12:53 | 41.94332 | 62.07683 | 37915 ft | 440 kts | 250° |
| 2026-05-07 12:54 | 41.92386 | 61.99867 | 37915 ft | 440 kts | 250° |
| 2026-05-07 12:54 | 41.90440 | 61.92054 | 37916 ft | 440 kts | 250° |
| 2026-05-07 12:55 | 41.88505 | 61.84313 | 37915 ft | 440 kts | 250° |
| 2026-05-07 12:55 | 41.86545 | 61.76504 | 37916 ft | 440 kts | 250° |
| 2026-05-07 12:56 | 41.84597 | 61.68760 | 37915 ft | 440 kts | 250° |
| 2026-05-07 12:56 | 41.82621 | 61.60974 | 37916 ft | 440 kts | 250° |
| 2026-05-07 12:57 | 41.80642 | 61.53202 | 37915 ft | 439 kts | 250° |
| 2026-05-07 12:57 | 41.78673 | 61.45491 | 37915 ft | 439 kts | 250° |
| 2026-05-07 12:58 | 41.76690 | 61.37741 | 37915 ft | 439 kts | 250° |
| 2026-05-07 12:58 | 41.74713 | 61.30043 | 37915 ft | 439 kts | 250° |
| 2026-05-07 12:59 | 41.73055 | 61.23605 | 37915 ft | 439 kts | 250° |
| 2026-05-07 12:59 | 41.70730 | 61.14606 | 37916 ft | 439 kts | 250° |
| 2026-05-07 13:00 | 41.69066 | 61.08186 | 37916 ft | 438 kts | 250° |
| 2026-05-07 13:00 | 41.67059 | 61.00461 | 37915 ft | 438 kts | 250° |
| 2026-05-07 13:01 | 41.65060 | 60.92797 | 37915 ft | 438 kts | 250° |
| 2026-05-07 13:01 | 41.63044 | 60.85090 | 37915 ft | 438 kts | 250° |
| 2026-05-07 13:02 | 41.61028 | 60.77406 | 37915 ft | 438 kts | 250° |
| 2026-05-07 13:02 | 41.59016 | 60.69765 | 37916 ft | 438 kts | 250° |
| 2026-05-07 13:03 | 41.57024 | 60.62119 | 37915 ft | 437 kts | 251° |
| 2026-05-07 13:03 | 41.55217 | 60.54347 | 37915 ft | 437 kts | 252° |
| 2026-05-07 13:04 | 41.53457 | 60.46562 | 37915 ft | 437 kts | 252° |
| 2026-05-07 13:04 | 41.51678 | 60.38854 | 37915 ft | 437 kts | 251° |
| 2026-05-07 13:05 | 41.49862 | 60.31107 | 37915 ft | 437 kts | 251° |
| 2026-05-07 13:05 | 41.48038 | 60.23377 | 37918 ft | 437 kts | 251° |
| 2026-05-07 13:06 | 41.46218 | 60.15697 | 37923 ft | 437 kts | 251° |
| 2026-05-07 13:06 | 41.44359 | 60.07967 | 37927 ft | 437 kts | 251° |
| 2026-05-07 13:07 | 41.42490 | 60.00234 | 37925 ft | 437 kts | 251° |
| 2026-05-07 13:07 | 41.40631 | 59.92556 | 37933 ft | 436 kts | 251° |
| 2026-05-07 13:08 | 41.38769 | 59.84884 | 37937 ft | 435 kts | 251° |
| 2026-05-07 13:08 | 41.36912 | 59.77254 | 37964 ft | 435 kts | 251° |
| 2026-05-07 13:09 | 41.35048 | 59.69571 | 37962 ft | 435 kts | 252° |
| 2026-05-07 13:09 | 41.33874 | 59.61637 | 37964 ft | 437 kts | 259° |
| 2026-05-07 13:10 | 41.33085 | 59.53655 | 37971 ft | 437 kts | 261° |
| 2026-05-07 13:10 | 41.32352 | 59.45624 | 37972 ft | 436 kts | 261° |
| 2026-05-07 13:11 | 41.31614 | 59.37648 | 37977 ft | 436 kts | 261° |
| 2026-05-07 13:11 | 41.30856 | 59.29647 | 37973 ft | 436 kts | 261° |
| 2026-05-07 13:12 | 41.30091 | 59.21684 | 37978 ft | 435 kts | 260° |
| 2026-05-07 13:12 | 41.29316 | 59.13696 | 37969 ft | 435 kts | 261° |
| 2026-05-07 13:13 | 41.28537 | 59.05710 | 37966 ft | 434 kts | 260° |
| 2026-05-07 13:13 | 41.27759 | 58.97789 | 37972 ft | 434 kts | 260° |
| 2026-05-07 13:14 | 41.26972 | 58.89831 | 37965 ft | 433 kts | 260° |
| 2026-05-07 13:14 | 41.26179 | 58.81878 | 37972 ft | 433 kts | 260° |
| 2026-05-07 13:15 | 41.25386 | 58.73978 | 37978 ft | 433 kts | 260° |
| 2026-05-07 13:15 | 41.24583 | 58.66034 | 37978 ft | 432 kts | 260° |
| 2026-05-07 13:16 | 41.23780 | 58.58147 | 37977 ft | 432 kts | 260° |
| 2026-05-07 13:16 | 41.22965 | 58.50199 | 37977 ft | 432 kts | 260° |
| 2026-05-07 13:17 | 41.22153 | 58.42332 | 37967 ft | 432 kts | 260° |
| 2026-05-07 13:17 | 41.21330 | 58.34413 | 37976 ft | 432 kts | 260° |
| 2026-05-07 13:18 | 41.20502 | 58.26499 | 37990 ft | 432 kts | 259° |
| 2026-05-07 13:18 | 41.19675 | 58.18643 | 37990 ft | 432 kts | 260° |
| 2026-05-07 13:19 | 41.18841 | 58.10780 | 37999 ft | 431 kts | 260° |
| 2026-05-07 13:19 | 41.18000 | 58.02879 | 37999 ft | 431 kts | 259° |
| 2026-05-07 13:20 | 41.17151 | 57.94981 | 37999 ft | 430 kts | 259° |
| 2026-05-07 13:20 | 41.16306 | 57.87163 | 37999 ft | 429 kts | 259° |
| 2026-05-07 13:21 | 41.15452 | 57.79314 | 37999 ft | 429 kts | 259° |
| 2026-05-07 13:21 | 41.14599 | 57.71522 | 38008 ft | 429 kts | 259° |
| 2026-05-07 13:22 | 41.13736 | 57.63695 | 38008 ft | 428 kts | 259° |
| 2026-05-07 13:22 | 41.12867 | 57.55857 | 38008 ft | 428 kts | 259° |
| 2026-05-07 13:23 | 41.12000 | 57.48084 | 38008 ft | 428 kts | 259° |
| 2026-05-07 13:23 | 41.11121 | 57.40257 | 38008 ft | 428 kts | 259° |
| 2026-05-07 13:24 | 41.10242 | 57.32487 | 38018 ft | 428 kts | 259° |
| 2026-05-07 13:24 | 41.09354 | 57.24672 | 38009 ft | 427 kts | 259° |
| 2026-05-07 13:25 | 41.08466 | 57.16909 | 38009 ft | 427 kts | 259° |
| 2026-05-07 13:25 | 41.07573 | 57.09154 | 38008 ft | 427 kts | 259° |
| 2026-05-07 13:26 | 41.06672 | 57.01377 | 38008 ft | 426 kts | 259° |
| 2026-05-07 13:26 | 41.05765 | 56.93589 | 38017 ft | 426 kts | 259° |
| 2026-05-07 13:27 | 41.04860 | 56.85866 | 38017 ft | 426 kts | 259° |
| 2026-05-07 13:27 | 41.03943 | 56.78097 | 38017 ft | 426 kts | 259° |
| 2026-05-07 13:28 | 41.03030 | 56.70395 | 38034 ft | 425 kts | 259° |
| 2026-05-07 13:28 | 41.02105 | 56.62641 | 38030 ft | 425 kts | 259° |
| 2026-05-07 13:29 | 41.01177 | 56.54911 | 38030 ft | 425 kts | 259° |
| 2026-05-07 13:29 | 41.00656 | 56.47128 | 38034 ft | 427 kts | 265° |
| 2026-05-07 13:30 | 41.00517 | 56.39237 | 38037 ft | 427 kts | 266° |
| 2026-05-07 13:30 | 41.00436 | 56.31399 | 38035 ft | 427 kts | 266° |
| 2026-05-07 13:31 | 41.00350 | 56.23522 | 38036 ft | 427 kts | 266° |
| 2026-05-07 13:31 | 41.00250 | 56.15697 | 38054 ft | 427 kts | 266° |
| 2026-05-07 13:32 | 41.00140 | 56.07814 | 38054 ft | 427 kts | 266° |
| 2026-05-07 13:32 | 41.00024 | 55.99938 | 38053 ft | 427 kts | 266° |
| 2026-05-07 13:33 | 40.99904 | 55.92116 | 38063 ft | 426 kts | 265° |
| 2026-05-07 13:33 | 40.99778 | 55.84266 | 38063 ft | 426 kts | 265° |
| 2026-05-07 13:34 | 40.99582 | 55.72544 | 38064 ft | 426 kts | 265° |
| 2026-05-07 13:35 | 40.99461 | 55.64690 | 38063 ft | 426 kts | 265° |
| 2026-05-07 13:35 | 40.99339 | 55.56889 | 38067 ft | 426 kts | 265° |
| 2026-05-07 13:36 | 40.99208 | 55.49054 | 38072 ft | 426 kts | 265° |
| 2026-05-07 13:36 | 40.99069 | 55.41204 | 38067 ft | 426 kts | 265° |
| 2026-05-07 13:37 | 40.98925 | 55.33355 | 38070 ft | 426 kts | 265° |
| 2026-05-07 13:37 | 40.98776 | 55.25556 | 38073 ft | 426 kts | 265° |
| 2026-05-07 13:38 | 40.98621 | 55.17688 | 38073 ft | 426 kts | 265° |
| 2026-05-07 13:38 | 40.98463 | 55.09877 | 38074 ft | 426 kts | 265° |
| 2026-05-07 13:39 | 40.98296 | 55.02010 | 38074 ft | 426 kts | 265° |
| 2026-05-07 13:39 | 40.98127 | 54.94208 | 38070 ft | 426 kts | 265° |
| 2026-05-07 13:40 | 40.97953 | 54.86352 | 38073 ft | 426 kts | 265° |
| 2026-05-07 13:40 | 40.97768 | 54.78527 | 38075 ft | 427 kts | 265° |
| 2026-05-07 13:41 | 40.97569 | 54.70676 | 38082 ft | 427 kts | 265° |
| 2026-05-07 13:41 | 40.97366 | 54.62809 | 38082 ft | 427 kts | 265° |
| 2026-05-07 13:42 | 40.97162 | 54.54980 | 38082 ft | 427 kts | 264° |
| 2026-05-07 13:42 | 40.96952 | 54.47126 | 38082 ft | 426 kts | 264° |
| 2026-05-07 13:43 | 40.96736 | 54.39269 | 38082 ft | 426 kts | 264° |
| 2026-05-07 13:43 | 40.96517 | 54.31478 | 38082 ft | 426 kts | 264° |
| 2026-05-07 13:44 | 40.96291 | 54.23626 | 38082 ft | 426 kts | 264° |
| 2026-05-07 13:44 | 40.96061 | 54.15826 | 38082 ft | 426 kts | 264° |
| 2026-05-07 13:45 | 40.95824 | 54.07968 | 38089 ft | 426 kts | 264° |
| 2026-05-07 13:45 | 40.95583 | 54.00170 | 38087 ft | 426 kts | 264° |
| 2026-05-07 13:46 | 40.95336 | 53.92319 | 38098 ft | 426 kts | 264° |
| 2026-05-07 13:46 | 40.95211 | 53.88438 | 38251 ft | 426 kts | 264° |
| 2026-05-07 13:46 | 40.95084 | 53.84508 | 38432 ft | 426 kts | 264° |
| 2026-05-07 13:46 | 40.94956 | 53.80584 | 38600 ft | 426 kts | 264° |
| 2026-05-07 13:47 | 40.94826 | 53.76663 | 38751 ft | 426 kts | 264° |
| 2026-05-07 13:47 | 40.94563 | 53.68840 | 38972 ft | 428 kts | 264° |
| 2026-05-07 13:47 | 40.94429 | 53.64904 | 39112 ft | 428 kts | 264° |
| 2026-05-07 13:48 | 40.94339 | 53.62296 | 39198 ft | 428 kts | 264° |
| 2026-05-07 13:48 | 40.94203 | 53.58351 | 39310 ft | 428 kts | 264° |
| 2026-05-07 13:48 | 40.94065 | 53.54403 | 39429 ft | 429 kts | 264° |
| 2026-05-07 13:49 | 40.93785 | 53.46527 | 39601 ft | 431 kts | 264° |
| 2026-05-07 13:49 | 40.93642 | 53.42557 | 39732 ft | 431 kts | 264° |
| 2026-05-07 13:49 | 40.93498 | 53.38588 | 39853 ft | 431 kts | 264° |
| 2026-05-07 13:49 | 40.93353 | 53.34620 | 39955 ft | 431 kts | 264° |
| 2026-05-07 13:50 | 40.93208 | 53.30707 | 40047 ft | 431 kts | 264° |
| 2026-05-07 13:50 | 40.92907 | 53.22724 | 40092 ft | 434 kts | 263° |
| 2026-05-07 13:51 | 40.92603 | 53.14776 | 40091 ft | 434 kts | 263° |
| 2026-05-07 13:51 | 40.92292 | 53.06786 | 40091 ft | 434 kts | 263° |
| 2026-05-07 13:52 | 40.91968 | 52.98866 | 40092 ft | 433 kts | 263° |
| 2026-05-07 13:52 | 40.91636 | 52.90887 | 40091 ft | 433 kts | 263° |
| 2026-05-07 13:53 | 40.91301 | 52.82968 | 40091 ft | 433 kts | 263° |
| 2026-05-07 13:53 | 40.90961 | 52.75004 | 40091 ft | 433 kts | 263° |
| 2026-05-07 13:54 | 40.90615 | 52.67047 | 40091 ft | 433 kts | 263° |
| 2026-05-07 13:54 | 40.90032 | 52.59191 | 40093 ft | 430 kts | 257° |
| 2026-05-07 13:55 | 40.88908 | 52.51417 | 40091 ft | 429 kts | 256° |
| 2026-05-07 13:55 | 40.87689 | 52.43677 | 40091 ft | 429 kts | 256° |
| 2026-05-07 13:56 | 40.86462 | 52.35996 | 40091 ft | 429 kts | 256° |
| 2026-05-07 13:56 | 40.85230 | 52.28262 | 40091 ft | 429 kts | 256° |
| 2026-05-07 13:57 | 40.84001 | 52.20541 | 40091 ft | 429 kts | 256° |
| 2026-05-07 13:57 | 40.82773 | 52.12855 | 40091 ft | 429 kts | 256° |
| 2026-05-07 13:58 | 40.81539 | 52.05170 | 40083 ft | 429 kts | 255° |
| 2026-05-07 13:58 | 40.80292 | 51.97437 | 40082 ft | 429 kts | 255° |
| 2026-05-07 13:59 | 40.79045 | 51.89735 | 40081 ft | 428 kts | 255° |
| 2026-05-07 13:59 | 40.77798 | 51.82074 | 40083 ft | 429 kts | 255° |
| 2026-05-07 14:00 | 40.76538 | 51.74367 | 40082 ft | 429 kts | 255° |
| 2026-05-07 14:00 | 40.75280 | 51.66709 | 40082 ft | 429 kts | 255° |
| 2026-05-07 14:01 | 40.74007 | 51.58991 | 40082 ft | 429 kts | 255° |
| 2026-05-07 14:01 | 40.72781 | 51.51320 | 40080 ft | 430 kts | 258° |
| 2026-05-07 14:02 | 40.72233 | 51.43418 | 40061 ft | 432 kts | 263° |
| 2026-05-07 14:02 | 40.71903 | 51.35543 | 40075 ft | 432 kts | 263° |
| 2026-05-07 14:03 | 40.71603 | 51.27597 | 40076 ft | 432 kts | 263° |
| 2026-05-07 14:03 | 40.71292 | 51.19722 | 40076 ft | 432 kts | 263° |
| 2026-05-07 14:04 | 40.70964 | 51.11785 | 40076 ft | 433 kts | 263° |
| 2026-05-07 14:04 | 40.70629 | 51.03892 | 40067 ft | 433 kts | 263° |
| 2026-05-07 14:05 | 40.70286 | 50.95953 | 40077 ft | 433 kts | 263° |
| 2026-05-07 14:05 | 40.69941 | 50.88067 | 40077 ft | 433 kts | 263° |
| 2026-05-07 14:06 | 40.69588 | 50.80133 | 40076 ft | 433 kts | 263° |
| 2026-05-07 14:06 | 40.69230 | 50.72203 | 40078 ft | 432 kts | 263° |
| 2026-05-07 14:07 | 40.68870 | 50.64340 | 40070 ft | 432 kts | 263° |
| 2026-05-07 14:07 | 40.68502 | 50.56416 | 40076 ft | 432 kts | 263° |
| 2026-05-07 14:08 | 40.68133 | 50.48489 | 40058 ft | 433 kts | 263° |
| 2026-05-07 14:08 | 40.68558 | 50.40575 | 40077 ft | 440 kts | 277° |
| 2026-05-07 14:09 | 40.69933 | 50.32682 | 40075 ft | 442 kts | 278° |
| 2026-05-07 14:09 | 40.71462 | 50.24853 | 40076 ft | 443 kts | 279° |
| 2026-05-07 14:10 | 40.73005 | 50.16981 | 40067 ft | 442 kts | 278° |
| 2026-05-07 14:10 | 40.74522 | 50.09103 | 40077 ft | 442 kts | 278° |